BA2593 / G-MIDS 7700 Squawk Report (14th of July, 2019)

Aircraft A320 Reg No. G-MIDS Age 18 years old
Model A320 Jet engines 2 First flight 06-02-01
Registered 03-09-12 Rollout 01-01 Delivered 21-03-01
Construction No. 1424 Line No. N/A Series 232
ADSHEX 4008E6 Airline name British Airways Owner Aercap Holdings N.V.
Airfield based Heathrow~Gtr London~G First tracked 2017-07-13 05:40:00

Flight history for G-MIDS

Route Flight No Date Playback
Gatwick (LGW) - Makedonia (SKG) BA2642 2019-08-20 09:51:00
Cote D Azur (NCE) - Gatwick (LGW) BA2625 2019-08-20 08:12:00
Gatwick (LGW) - Cote D Azur (NCE) BA2624 2019-08-19 17:45:00
Elmas (CAG) - Gatwick (LGW) BA2617 2019-08-19 15:55:00
Gatwick (LGW) - Elmas (CAG) BA2616 2019-08-19 10:14:00
Villafranca (VRN) - Gatwick (LGW) BA2599 2019-08-19 07:56:00
Gatwick (LGW) - Villafranca (VRN) BA2598 2019-08-18 20:07:00
Menara (RAK) - Gatwick (LGW) BA2667 2019-08-18 17:06:00
Gatwick (LGW) - Menara (RAK) BA2666 2019-08-18 12:50:00
Nikos Kazantzakis (HER) - Gatwick (LGW) BA2553 2019-08-17 19:26:00
Gatwick (LGW) - Nikos Kazantzakis (HER) BA2552 2019-08-17 14:26:00
Alicante (ALC) - Gatwick (LGW) BA2637 2019-08-17 10:34:00
Gatwick (LGW) - Alicante (ALC) BA2632 2019-08-16 23:00:00
Bilbao (BIO) - Gatwick (LGW) BA2685 2019-08-16 15:23:00
Gatwick (LGW) - Bilbao (BIO) BA2684 2019-08-16 14:00:00
Ibiza (IBZ) - Gatwick (LGW) BA2727 2019-08-16 02:13:00
Gatwick (LGW) - Ibiza (IBZ) BA2726 2019-08-15 23:58:00
Villafranca (VRN) - Gatwick (LGW) BA2599 2019-08-15 19:32:00
Gatwick (LGW) - Villafranca (VRN) BA2598 2019-08-15 16:33:00
Menorca (MAH) - Gatwick (LGW) BA2567 2019-08-15 14:49:00
Time Lat Lon Altitude Heading Speed Vertical Rate
2019-07-14 15:18:28 GMT 51.154999 -0.169067 0 348 0 0
2019-07-14 15:17:30 GMT 51.154381 -0.169026 0 70 6 0
2019-07-14 15:17:16 GMT 51.154312 -0.169472 0 78 7 0
2019-07-14 15:17:08 GMT 51.154369 -0.170028 0 78 10 0
2019-07-14 15:16:55 GMT 51.154129 -0.170752 0 78 9 0
2019-07-14 15:16:47 GMT 51.154030 -0.171204 0 67 10 0
2019-07-14 15:16:31 GMT 51.153625 -0.172367 0 53 9 0
2019-07-14 15:16:20 GMT 51.153542 -0.172462 0 348 9 0
2019-07-14 15:16:00 GMT 51.152531 -0.172310 0 28 8 0
2019-07-14 15:15:29 GMT 51.152241 -0.173721 0 78 9 0
2019-07-14 15:15:22 GMT 51.152195 -0.174037 0 78 7 0
2019-07-14 15:15:11 GMT 51.152115 -0.174798 0 78 12 0
2019-07-14 15:15:01 GMT 51.151970 -0.175419 0 75 10 0
2019-07-14 15:14:49 GMT 51.151936 -0.175991 0 78 6 0
2019-07-14 15:11:50 GMT 51.151909 -0.176338 0 78 0 0
2019-07-14 15:11:40 GMT 51.151913 -0.176353 0 78 0 0
2019-07-14 15:11:10 GMT 51.151909 -0.176338 0 78 0 0
2019-07-14 15:09:40 GMT 51.151901 -0.176334 0 78 0 0
2019-07-14 15:09:22 GMT 51.151909 -0.176338 0 78 0 0
2019-07-14 15:09:16 GMT 51.151901 -0.176334 0 78 0 0
2019-07-14 15:09:08 GMT 51.151897 -0.176357 0 78 0 0
2019-07-14 15:08:58 GMT 51.151794 -0.176505 0 75 12 0
2019-07-14 15:08:23 GMT 51.150089 -0.178806 0 56 35 0
2019-07-14 15:08:10 GMT 51.149132 -0.182381 0 78 54 0
2019-07-14 15:07:56 GMT 51.148201 -0.190392 0 78 110 0
2019-07-14 15:07:47 GMT 51.146896 -0.197906 -75 78 134 -64
2019-07-14 15:07:39 GMT 51.145844 -0.206216 -25 77 134 -640
2019-07-14 15:07:34 GMT 51.145432 -0.210151 25 77 133 -640
2019-07-14 15:07:30 GMT 51.144665 -0.214615 75 77 131 -768
2019-07-14 15:07:23 GMT 51.144012 -0.220840 150 77 132 -640
2019-07-14 15:07:18 GMT 51.143360 -0.225601 200 77 132 -704
2019-07-14 15:07:11 GMT 51.141861 -0.236726 325 77 132 -768
2019-07-14 15:06:59 GMT 51.140717 -0.244668 425 77 132 -832
2019-07-14 15:06:47 GMT 51.139069 -0.255061 575 77 136 -704
2019-07-14 15:06:41 GMT 51.138191 -0.261078 650 76 137 -576
2019-07-14 15:06:35 GMT 51.137329 -0.267309 725 77 137 -576
2019-07-14 15:06:32 GMT 51.136936 -0.270157 750 77 135 -512
2019-07-14 15:06:26 GMT 51.136093 -0.276069 825 77 135 -512
2019-07-14 15:06:21 GMT 51.135498 -0.280300 875 77 133 -704
2019-07-14 15:06:14 GMT 51.134537 -0.287575 1,000 77 134 -640
2019-07-14 15:06:11 GMT 51.134399 -0.290321 1,050 77 135 -704
2019-07-14 15:06:05 GMT 51.133305 -0.295639 1,125 77 134 -640
2019-07-14 15:06:00 GMT 51.132652 -0.301208 1,150 77 136 -640
2019-07-14 15:05:54 GMT 51.132141 -0.306625 1,175 77 136 -640
2019-07-14 15:05:47 GMT 51.130920 -0.313704 1,800 73 161 -768
2019-07-14 15:05:44 GMT 51.130695 -0.317078 1,375 77 143 -896
2019-07-14 15:05:40 GMT 51.130093 -0.320892 1,400 77 145 -1088
2019-07-14 15:05:35 GMT 51.128998 -0.328922 1,500 77 150 -576
2019-07-14 15:05:29 GMT 51.128494 -0.332485 1,525 77 154 -640
2019-07-14 15:05:25 GMT 51.127808 -0.337384 1,575 76 157 -960
2019-07-14 15:05:19 GMT 51.126892 -0.343174 1,700 75 160 -832
2019-07-14 15:05:12 GMT 51.125336 -0.351562 1,750 73 161 -704
2019-07-14 15:05:09 GMT 51.124645 -0.355453 1,800 73 161 -768
2019-07-14 15:05:02 GMT 51.123047 -0.363662 1,875 68 158 -384
2019-07-14 15:04:59 GMT 51.122452 -0.367003 1,925 70 160 -448
2019-07-14 15:04:51 GMT 51.120392 -0.375317 1,975 64 157 -256
2019-07-14 15:04:48 GMT 51.117802 -0.382690 2,025 58 159 -576
2019-07-14 15:04:40 GMT 51.116409 -0.385709 2,050 50 159 -1024
2019-07-14 15:04:37 GMT 51.112747 -0.392390 2,125 46 159 -768
2019-07-14 15:04:30 GMT 51.111099 -0.394988 2,200 45 160 -512
2019-07-14 15:04:27 GMT 51.108074 -0.399704 2,275 45 160 -960
2019-07-14 15:04:20 GMT 51.105839 -0.403519 2,375 46 159 -1024
2019-07-14 15:04:17 GMT 51.104233 -0.406123 2,425 46 159 -832
2019-07-14 15:04:14 GMT 51.102764 -0.408630 2,475 46 159 -832
2019-07-14 15:04:08 GMT 51.099785 -0.413437 2,525 45 159 -896
2019-07-14 15:04:05 GMT 51.098202 -0.416031 2,550 45 159 -960
2019-07-14 15:04:01 GMT 51.096085 -0.419559 2,700 45 159 -1152
2019-07-14 15:03:58 GMT 51.094109 -0.422668 2,750 45 159 -1472
2019-07-14 15:03:55 GMT 51.093155 -0.424161 2,800 45 158 -1664
2019-07-14 15:03:52 GMT 51.091175 -0.427475 2,900 45 158 -1664
2019-07-14 15:03:49 GMT 51.090042 -0.428986 2,950 46 158 -1536
2019-07-14 15:03:46 GMT 51.088474 -0.431824 3,025 46 158 -1536
2019-07-14 15:03:43 GMT 51.086975 -0.434257 3,100 46 158 -1472
2019-07-14 15:03:40 GMT 51.084961 -0.437746 3,375 11 190 -960
2019-07-14 15:03:37 GMT 51.083313 -0.440344 3,275 46 158 -1472
2019-07-14 15:03:34 GMT 51.081024 -0.444204 3,675 45 159 -1344
2019-07-14 15:03:31 GMT 51.078045 -0.448761 3,550 44 159 -1152
2019-07-14 15:03:26 GMT 51.078045 -0.448761 3,550 43 160 -1152
2019-07-14 15:03:23 GMT 51.076324 -0.451584 3,575 42 162 -960
2019-07-14 15:03:20 GMT 51.075161 -0.453186 3,675 42 162 -832
2019-07-14 15:03:16 GMT 51.072784 -0.456543 3,650 40 167 -576
2019-07-14 15:03:13 GMT 51.070908 -0.458902 3,700 37 171 -192
2019-07-14 15:03:09 GMT 51.068596 -0.461731 3,700 29 180 128
2019-07-14 15:03:06 GMT 51.065598 -0.464247 3,700 25 184 -256
2019-07-14 15:03:03 GMT 51.059326 -0.466845 3,900 6 191 -960
2019-07-14 15:02:57 GMT 51.059326 -0.466845 3,800 0 194 -1024
2019-07-14 15:02:54 GMT 51.055981 -0.467072 3,900 352 197 -832
2019-07-14 15:02:47 GMT 51.049347 -0.465286 3,950 347 203 -832
2019-07-14 15:02:42 GMT 51.043877 -0.463181 4,100 348 209 -768
2019-07-14 15:02:35 GMT 51.037453 -0.460815 4,075 348 209 -768
2019-07-14 15:02:32 GMT 51.034424 -0.459793 4,175 348 213 -704
2019-07-14 15:02:29 GMT 51.032516 -0.458984 4,275 347 220 -896
2019-07-14 15:02:24 GMT 51.028141 -0.457382 4,300 347 219 -960
2019-07-14 15:02:21 GMT 51.023666 -0.455784 4,350 347 220 -896
2019-07-14 15:02:18 GMT 51.022385 -0.455190 4,350 347 222 -832
2019-07-14 15:02:14 GMT 51.018173 -0.453780 4,425 347 225 -832
2019-07-14 15:02:11 GMT 51.014099 -0.452295 4,475 346 228 -768
2019-07-14 15:02:08 GMT 51.011627 -0.451033 4,700 331 243 -1216
2019-07-14 15:02:05 GMT 51.005219 -0.447990 4,600 336 239 -1152
2019-07-14 15:02:02 GMT 51.005219 -0.447990 4,625 340 237 -1024
2019-07-14 15:01:59 GMT 51.002609 -0.446357 4,750 336 239 -1152
2019-07-14 15:01:56 GMT 50.999680 -0.444204 4,725 329 244 -1216
2019-07-14 15:01:52 GMT 50.996292 -0.440864 5,500 300 270 -2304
2019-07-14 15:01:49 GMT 50.993366 -0.436935 4,900 315 253 -1216
2019-07-14 15:01:45 GMT 50.989223 -0.430298 4,975 306 260 -1216
2019-07-14 15:01:38 GMT 50.983200 -0.415179 5,200 300 269 -1472
2019-07-14 15:01:35 GMT 50.981506 -0.410057 5,200 300 269 -1472
2019-07-14 15:01:32 GMT 50.981506 -0.410057 5,250 300 270 -1984
2019-07-14 15:01:29 GMT 50.979401 -0.404358 5,375 300 270 -2304
2019-07-14 15:01:26 GMT 50.977982 -0.400333 5,400 300 270 -2304
2019-07-14 15:01:22 GMT 50.975307 -0.392990 5,925 300 269 -2368
2019-07-14 15:01:19 GMT 50.973446 -0.387802 5,750 300 271 -1664
2019-07-14 15:01:16 GMT 50.971436 -0.382072 5,850 300 271 -1664
2019-07-14 15:01:13 GMT 50.969532 -0.376740 6,925 300 269 -2368
2019-07-14 15:01:10 GMT 50.967670 -0.371552 6,925 300 269 -2368
2019-07-14 15:01:07 GMT 50.965942 -0.366557 6,100 300 269 -2112
2019-07-14 15:01:01 GMT 50.961502 -0.354235 6,350 300 271 -1920
2019-07-14 15:00:58 GMT 50.959663 -0.349274 6,400 300 270 -1856
2019-07-14 15:00:55 GMT 50.958778 -0.346375 6,550 300 270 -1792
2019-07-14 15:00:52 GMT 50.956192 -0.339017 6,700 300 271 -1920
2019-07-14 15:00:49 GMT 50.953007 -0.330276 6,925 300 293 -704
2019-07-14 15:00:46 GMT 50.950287 -0.322983 6,800 300 293 -704
2019-07-14 15:00:43 GMT 50.950287 -0.322983 6,975 300 293 -704
2019-07-14 15:00:40 GMT 50.949562 -0.320282 6,900 300 278 -1088
2019-07-14 15:00:36 GMT 50.944839 -0.307988 7,000 300 283 -832
2019-07-14 15:00:30 GMT 50.942322 -0.300491 7,050 300 289 -576
2019-07-14 15:00:27 GMT 50.941132 -0.296928 7,100 300 289 -576
2019-07-14 15:00:24 GMT 50.938995 -0.291138 7,175 300 294 -704
2019-07-14 15:00:21 GMT 50.935970 -0.283051 7,275 300 314 -1152
2019-07-14 15:00:18 GMT 50.934814 -0.279483 8,100 300 297 -704
2019-07-14 15:00:15 GMT 50.932850 -0.273972 7,300 300 297 -704
2019-07-14 15:00:12 GMT 50.930382 -0.267105 7,250 300 299 -704
2019-07-14 15:00:08 GMT 50.927963 -0.260773 7,300 300 301 -768
2019-07-14 15:00:05 GMT 50.926334 -0.256119 7,300 300 302 -768
2019-07-14 15:00:02 GMT 50.923737 -0.248974 7,375 300 306 -768
2019-07-14 14:59:57 GMT 50.920376 -0.239716 7,850 300 310 -896
2019-07-14 14:59:54 GMT 50.918289 -0.233534 7,500 300 310 -896
2019-07-14 14:59:51 GMT 50.916138 -0.227966 7,550 300 312 -896
2019-07-14 14:59:48 GMT 50.914089 -0.221863 7,625 300 314 -1472
2019-07-14 14:59:45 GMT 50.912086 -0.216675 8,225 300 321 -2240
2019-07-14 14:59:42 GMT 50.909901 -0.210342 7,725 300 315 -1792
2019-07-14 14:59:39 GMT 50.906937 -0.201688 7,925 300 317 -1984
2019-07-14 14:59:36 GMT 50.905243 -0.197220 7,950 300 319 -1920
2019-07-14 14:59:33 GMT 50.903149 -0.191650 8,025 300 321 -1728
2019-07-14 14:59:30 GMT 50.900940 -0.184912 8,125 300 322 -1856
2019-07-14 14:59:26 GMT 50.897095 -0.174742 8,275 300 348 -1280
2019-07-14 14:59:22 GMT 50.894485 -0.167319 8,575 300 325 -1600
2019-07-14 14:59:19 GMT 50.893143 -0.162964 8,500 300 325 -1600
2019-07-14 14:59:15 GMT 50.887417 -0.147476 8,725 300 338 -1088
2019-07-14 14:59:12 GMT 50.887417 -0.147476 8,675 300 334 -1088
2019-07-14 14:59:09 GMT 50.883270 -0.135422 8,950 300 351 -1344
2019-07-14 14:59:03 GMT 50.880386 -0.127182 8,800 300 342 -1152
2019-07-14 14:59:00 GMT 50.878052 -0.120627 8,875 300 349 -1344
2019-07-14 14:58:57 GMT 50.875450 -0.113220 9,000 300 357 -1216
2019-07-14 14:58:53 GMT 50.872650 -0.105335 9,125 300 359 -1152
2019-07-14 14:58:49 GMT 50.866196 -0.087742 9,175 300 364 -1024
2019-07-14 14:58:46 GMT 50.866196 -0.087742 10,400 300 385 -1664
2019-07-14 14:58:43 GMT 50.863579 -0.079880 9,250 300 371 -1024
2019-07-14 14:58:40 GMT 50.861858 -0.075226 9,275 300 373 -1024
2019-07-14 14:58:37 GMT 50.859764 -0.068970 9,325 300 375 -1024
2019-07-14 14:58:34 GMT 50.857529 -0.062637 9,375 299 379 -1152
2019-07-14 14:58:31 GMT 50.854202 -0.053224 9,450 299 381 -1216
2019-07-14 14:58:27 GMT 50.850498 -0.042648 9,550 300 384 -1408
2019-07-14 14:58:24 GMT 50.848404 -0.036926 10,400 300 385 -1664
2019-07-14 14:58:20 GMT 50.844864 -0.026724 9,750 300 387 -1408
2019-07-14 14:58:17 GMT 50.839375 -0.011444 9,825 300 387 -1344
2019-07-14 14:58:14 GMT 50.839375 -0.011444 9,850 300 387 -1408
2019-07-14 14:58:10 GMT 50.836670 -0.003489 9,950 300 389 -1472
2019-07-14 14:58:07 GMT 50.830490 0.013733 10,050 300 389 -1408
2019-07-14 14:58:01 GMT 50.827377 0.022567 10,225 300 390 -1408
2019-07-14 14:57:58 GMT 50.825043 0.028654 10,250 300 390 -1408
2019-07-14 14:57:55 GMT 50.822800 0.035248 10,350 300 390 -1408
2019-07-14 14:57:52 GMT 50.820236 0.041793 10,375 300 390 -1408
2019-07-14 14:57:49 GMT 50.817028 0.051117 10,450 300 390 -1344
2019-07-14 14:57:45 GMT 50.813187 0.061761 10,625 300 391 -1408
2019-07-14 14:57:42 GMT 50.810604 0.068970 10,625 300 392 -1408
2019-07-14 14:57:38 GMT 50.807693 0.076607 10,750 300 393 -1472
2019-07-14 14:57:35 GMT 50.805405 0.083659 10,775 300 393 -1408
2019-07-14 14:57:32 GMT 50.802456 0.091324 10,850 300 393 -1472
2019-07-14 14:57:28 GMT 50.798080 0.103628 10,950 300 394 -1984
2019-07-14 14:57:25 GMT 50.796360 0.108337 11,000 300 393 -1600
2019-07-14 14:57:22 GMT 50.793091 0.118177 11,200 300 394 -1920
2019-07-14 14:57:19 GMT 50.790024 0.126120 12,250 300 394 -1984
2019-07-14 14:57:16 GMT 50.788353 0.130768 11,275 300 394 -1984
2019-07-14 14:57:13 GMT 50.785511 0.138779 11,400 300 398 -1984
2019-07-14 14:57:10 GMT 50.782471 0.147053 11,575 300 397 -1984
2019-07-14 14:57:07 GMT 50.779648 0.154953 11,675 300 398 -1984
2019-07-14 14:57:03 GMT 50.775551 0.166473 11,800 300 398 -1984
2019-07-14 14:57:00 GMT 50.773132 0.173332 11,850 300 399 -1984
2019-07-14 14:56:57 GMT 50.766472 0.191956 12,225 300 402 -2048
2019-07-14 14:56:53 GMT 50.766472 0.191956 12,100 300 401 -2048
2019-07-14 14:56:50 GMT 50.763199 0.200723 12,225 300 407 -2112
2019-07-14 14:56:47 GMT 50.761585 0.205612 12,250 300 402 -2048
2019-07-14 14:56:43 GMT 50.758698 0.213776 12,350 300 403 -2176
2019-07-14 14:56:40 GMT 50.755207 0.223465 12,475 300 404 -2176
2019-07-14 14:56:37 GMT 50.752808 0.229896 12,550 300 404 -2176
2019-07-14 14:56:34 GMT 50.749619 0.238876 12,775 300 405 -2176
2019-07-14 14:56:31 GMT 50.746502 0.247650 12,825 300 405 -2176
2019-07-14 14:56:28 GMT 50.743881 0.255135 13,450 300 406 -2048
2019-07-14 14:56:25 GMT 50.740723 0.263820 13,125 300 407 -2112
2019-07-14 14:56:22 GMT 50.739349 0.267977 13,100 300 406 -2112
2019-07-14 14:56:19 GMT 50.735504 0.278296 13,250 300 407 -2112
2019-07-14 14:56:16 GMT 50.732628 0.286331 13,375 300 409 -2112
2019-07-14 14:56:12 GMT 50.729599 0.294924 13,625 300 410 -2048
2019-07-14 14:56:09 GMT 50.726807 0.302644 13,550 300 411 -2048
2019-07-14 14:56:05 GMT 50.722527 0.314407 13,725 300 412 -1984
2019-07-14 14:56:02 GMT 50.719254 0.323503 13,800 300 412 -1920
2019-07-14 14:55:58 GMT 50.715088 0.334935 13,925 300 412 -1856
2019-07-14 14:55:54 GMT 50.711819 0.344162 14,075 300 412 -1664
2019-07-14 14:55:51 GMT 50.709412 0.350672 14,250 300 412 -1152
2019-07-14 14:55:48 GMT 50.706802 0.357946 14,225 300 412 -1344
2019-07-14 14:55:43 GMT 50.702087 0.370937 14,300 300 412 -1088
2019-07-14 14:55:40 GMT 50.699020 0.379993 14,375 300 412 -832
2019-07-14 14:55:37 GMT 50.693161 0.396102 14,475 300 412 -448
2019-07-14 14:55:33 GMT 50.693161 0.396102 14,550 300 412 -448
2019-07-14 14:55:30 GMT 50.688950 0.407608 14,550 300 412 -448
2019-07-14 14:55:27 GMT 50.686543 0.414047 14,500 300 412 -448
2019-07-14 14:55:24 GMT 50.684170 0.420914 14,525 300 412 -448
2019-07-14 14:55:21 GMT 50.680771 0.430298 14,550 300 412 -448
2019-07-14 14:55:18 GMT 50.678513 0.436187 14,575 300 412 -448
2019-07-14 14:55:15 GMT 50.676022 0.443344 14,600 300 412 -448
2019-07-14 14:55:12 GMT 50.672195 0.454077 14,700 300 415 -448
2019-07-14 14:55:09 GMT 50.666840 0.468798 14,650 300 415 -512
2019-07-14 14:55:06 GMT 50.666840 0.468798 14,700 300 415 -448
2019-07-14 14:55:03 GMT 50.663544 0.477831 14,725 300 415 -448
2019-07-14 14:55:00 GMT 50.660797 0.485180 14,750 300 415 -448
2019-07-14 14:54:57 GMT 50.658920 0.490771 14,750 300 416 -448
2019-07-14 14:54:54 GMT 50.656082 0.498721 14,775 300 416 -448
2019-07-14 14:54:51 GMT 50.649948 0.515490 14,825 300 417 -448
2019-07-14 14:54:47 GMT 50.649948 0.515490 14,825 300 417 -448
2019-07-14 14:54:43 GMT 50.645325 0.528067 14,875 300 417 -448
2019-07-14 14:54:40 GMT 50.643036 0.534499 14,950 300 420 -448
2019-07-14 14:54:37 GMT 50.635437 0.555605 14,925 300 418 -512
2019-07-14 14:54:33 GMT 50.635437 0.555605 14,950 300 418 -512
2019-07-14 14:54:29 GMT 50.628937 0.573602 15,000 300 418 -512
2019-07-14 14:54:21 GMT 50.624626 0.585542 15,050 300 420 -448
2019-07-14 14:54:18 GMT 50.619415 0.600128 15,125 300 420 -448
2019-07-14 14:54:11 GMT 50.615597 0.610409 15,125 300 420 -448
2019-07-14 14:54:07 GMT 50.610809 0.623402 15,175 300 420 -448
2019-07-14 14:54:04 GMT 50.605453 0.638291 15,225 300 420 -448
2019-07-14 14:53:58 GMT 50.602158 0.647254 15,275 300 421 -448
2019-07-14 14:53:55 GMT 50.598312 0.657879 15,275 300 421 -512
2019-07-14 14:53:52 GMT 50.595383 0.665902 15,300 300 421 -512
2019-07-14 14:53:46 GMT 50.591019 0.677886 15,525 300 421 -512
2019-07-14 14:53:43 GMT 50.588058 0.686067 15,425 300 421 -448
2019-07-14 14:53:40 GMT 50.585037 0.693946 15,400 300 421 -448
2019-07-14 14:53:37 GMT 50.581833 0.703053 15,400 300 421 -448
2019-07-14 14:53:34 GMT 50.579544 0.709486 15,450 300 421 -512
2019-07-14 14:53:31 GMT 50.575142 0.721312 16,000 300 421 0
2019-07-14 14:53:27 GMT 50.572403 0.729145 15,500 300 421 -576
2019-07-14 14:53:24 GMT 50.569836 0.736158 16,000 300 420 -896
2019-07-14 14:53:20 GMT 50.565647 0.747367 15,600 300 421 -768
2019-07-14 14:53:17 GMT 50.561554 0.758779 15,800 300 420 -896
2019-07-14 14:53:12 GMT 50.557983 0.768248 15,800 300 420 -896
2019-07-14 14:53:08 GMT 50.550842 0.787835 15,825 300 420 0
2019-07-14 14:53:05 GMT 50.547955 0.795395 15,875 300 422 0
2019-07-14 14:52:57 GMT 50.542229 0.811355 16,000 300 421 -576
2019-07-14 14:52:54 GMT 50.539532 0.818630 15,950 300 421 -576
2019-07-14 14:52:48 GMT 50.534180 0.833299 16,000 300 421 0
2019-07-14 14:52:45 GMT 50.531433 0.840671 16,000 300 421 0
2019-07-14 14:52:42 GMT 50.528824 0.847803 16,000 300 421 0
2019-07-14 14:52:39 GMT 50.521561 0.867326 16,000 300 421 0
2019-07-14 14:52:36 GMT 50.521561 0.867326 16,000 300 421 0
2019-07-14 14:52:33 GMT 50.519558 0.873190 16,025 300 420 0
2019-07-14 14:52:30 GMT 50.510250 0.898503 16,000 300 420 0
2019-07-14 14:52:24 GMT 50.510250 0.898503 16,000 300 421 0
2019-07-14 14:52:21 GMT 50.507687 0.905481 16,000 301 421 0
2019-07-14 14:52:17 GMT 50.504616 0.913795 16,000 301 421 0
2019-07-14 14:52:14 GMT 50.500854 0.924080 16,000 300 422 0
2019-07-14 14:52:10 GMT 50.496609 0.935471 16,000 301 422 0
2019-07-14 14:52:05 GMT 50.492249 0.947426 16,000 301 422 0
2019-07-14 14:52:02 GMT 50.489487 0.954697 16,000 301 423 0
2019-07-14 14:51:54 GMT 50.482269 0.974220 16,000 301 423 0
2019-07-14 14:51:51 GMT 50.478081 0.985429 16,000 301 423 0
2019-07-14 14:51:47 GMT 50.470772 1.005026 16,000 301 422 0
2019-07-14 14:51:43 GMT 50.470772 1.005026 16,000 301 422 0
2019-07-14 14:51:39 GMT 50.467747 1.013415 16,000 301 422 0
2019-07-14 14:51:36 GMT 50.464874 1.021078 16,000 301 421 0
2019-07-14 14:51:32 GMT 50.459831 1.034496 16,000 301 421 0
2019-07-14 14:51:28 GMT 50.453247 1.052158 16,000 308 420 -1216
2019-07-14 14:51:22 GMT 50.449493 1.062132 16,000 301 422 0
2019-07-14 14:51:19 GMT 50.446472 1.070350 16,000 301 422 0
2019-07-14 14:51:13 GMT 50.440887 1.085048 18,100 305 421 -960
2019-07-14 14:51:10 GMT 50.438049 1.092706 16,000 301 421 -128
2019-07-14 14:51:07 GMT 50.435120 1.100367 16,000 301 422 -128
2019-07-14 14:51:03 GMT 50.428455 1.118156 16,050 302 422 -768
2019-07-14 14:50:57 GMT 50.424404 1.128697 16,075 302 423 -576
2019-07-14 14:50:53 GMT 50.417816 1.144891 16,125 304 422 -896
2019-07-14 14:50:49 GMT 50.417816 1.144891 16,475 307 421 -1152
2019-07-14 14:50:46 GMT 50.412552 1.155444 16,275 315 417 -1664
2019-07-14 14:50:41 GMT 50.406624 1.165442 16,350 323 415 -1920
2019-07-14 14:50:37 GMT 50.401550 1.172791 16,450 319 416 -1920
2019-07-14 14:50:34 GMT 50.397583 1.178067 17,650 331 414 -1856
2019-07-14 14:50:30 GMT 50.391354 1.185484 16,650 325 415 -1920
2019-07-14 14:50:27 GMT 50.380089 1.196916 16,850 329 413 -1920
2019-07-14 14:50:24 GMT 50.380089 1.196916 17,125 331 414 -1856
2019-07-14 14:50:20 GMT 50.375336 1.201196 17,500 331 414 -1856
2019-07-14 14:50:17 GMT 50.370174 1.205675 17,150 331 414 -1856
2019-07-14 14:50:13 GMT 50.361889 1.213247 17,375 331 414 -1856
2019-07-14 14:50:10 GMT 50.357391 1.217242 17,475 331 414 -1920
2019-07-14 14:50:05 GMT 50.350800 1.223241 17,450 331 414 -1856
2019-07-14 14:50:00 GMT 50.340500 1.232493 17,650 331 414 -1856
2019-07-14 14:49:56 GMT 50.332901 1.239359 17,875 331 414 -1856
2019-07-14 14:49:53 GMT 50.321758 1.249398 17,925 331 414 -1856
2019-07-14 14:49:49 GMT 50.321758 1.249398 18,525 331 416 -1792
2019-07-14 14:49:46 GMT 50.318253 1.252586 18,100 331 416 -1792
2019-07-14 14:49:43 GMT 50.313194 1.257118 18,125 331 414 -1856
2019-07-14 14:49:40 GMT 50.306671 1.262994 18,275 331 415 -1792
2019-07-14 14:49:34 GMT 50.298340 1.270511 18,600 330 415 -1792
2019-07-14 14:49:30 GMT 50.289032 1.278645 18,600 331 416 -1792
2019-07-14 14:49:27 GMT 50.286518 1.281095 18,950 331 418 -1792
2019-07-14 14:49:23 GMT 50.270458 1.295570 18,850 331 418 -1792
2019-07-14 14:49:18 GMT 50.270458 1.295570 18,850 331 418 -1792
2019-07-14 14:49:13 GMT 50.263229 1.302024 20,000 331 424 -1984
2019-07-14 14:49:10 GMT 50.258194 1.306578 19,300 331 420 -1792
2019-07-14 14:49:07 GMT 50.252956 1.311307 19,250 331 420 -1792
2019-07-14 14:49:04 GMT 50.248299 1.315539 19,475 330 421 -1856
2019-07-14 14:49:00 GMT 50.241669 1.321467 19,475 331 422 -1856
2019-07-14 14:48:57 GMT 50.235779 1.326748 19,475 331 422 -1856
2019-07-14 14:48:53 GMT 50.227631 1.334097 19,650 331 416 -2496
2019-07-14 14:48:48 GMT 50.218964 1.341850 19,900 331 411 -2432
2019-07-14 14:48:45 GMT 50.214733 1.345677 19,950 331 424 -1920
2019-07-14 14:48:41 GMT 50.209290 1.350576 20,100 330 425 -1984
2019-07-14 14:48:37 GMT 50.201141 1.357925 20,200 330 425 -1984
2019-07-14 14:48:34 GMT 50.195694 1.362824 20,350 330 425 -1984
2019-07-14 14:48:31 GMT 50.192299 1.365868 20,375 330 425 -1984
2019-07-14 14:48:26 GMT 50.177353 1.379304 20,675 330 422 -1984
2019-07-14 14:48:23 GMT 50.177353 1.379304 20,675 330 422 -1984
2019-07-14 14:48:19 GMT 50.172134 1.384061 21,275 330 416 -2240
2019-07-14 14:48:15 GMT 50.165085 1.390421 23,175 330 410 -2304
2019-07-14 14:48:11 GMT 50.157715 1.397071 21,150 330 416 -2240
2019-07-14 14:48:08 GMT 50.154007 1.400323 21,775 330 407 -2432
2019-07-14 14:48:04 GMT 50.145840 1.407735 21,325 330 414 -2432
2019-07-14 14:48:01 GMT 50.140297 1.412708 21,775 330 411 -2368
2019-07-14 14:47:57 GMT 50.127686 1.424031 21,675 320 420 -2496
2019-07-14 14:47:53 GMT 50.127686 1.424031 21,750 330 410 -2496
2019-07-14 14:47:50 GMT 50.122280 1.428891 21,875 330 409 -2432
2019-07-14 14:47:42 GMT 50.109375 1.440582 22,650 330 410 -2496
2019-07-14 14:47:39 GMT 50.104477 1.444919 22,500 330 411 -2496
2019-07-14 14:47:34 GMT 50.096073 1.452497 22,525 331 415 -2496
2019-07-14 14:47:31 GMT 50.092941 1.455327 22,650 331 416 -2496
2019-07-14 14:47:28 GMT 50.085983 1.461543 22,775 331 412 -2432
2019-07-14 14:47:24 GMT 50.081680 1.465302 23,000 331 412 -2496
2019-07-14 14:47:21 GMT 50.075916 1.470461 23,175 331 413 -2496
2019-07-14 14:47:17 GMT 50.068607 1.476919 23,525 331 416 -2496
2019-07-14 14:47:14 GMT 50.064606 1.480408 23,500 331 416 -2496
2019-07-14 14:47:08 GMT 50.054123 1.489659 23,650 331 415 -2496
2019-07-14 14:47:05 GMT 50.049088 1.494068 23,700 331 416 -2496
2019-07-14 14:47:02 GMT 50.045238 1.497481 24,125 331 416 -2496
2019-07-14 14:46:58 GMT 50.033878 1.507428 24,000 328 418 -2496
2019-07-14 14:46:55 GMT 50.031326 1.509608 24,325 327 418 -2496
2019-07-14 14:46:51 GMT 50.024475 1.515594 24,675 331 417 -2496
2019-07-14 14:46:44 GMT 50.013023 1.525541 24,625 321 421 -2624
2019-07-14 14:46:40 GMT 50.008324 1.529698 25,125 331 417 -2496
2019-07-14 14:46:37 GMT 50.001480 1.535845 24,950 325 418 -2496
2019-07-14 14:46:34 GMT 49.998688 1.538457 25,000 325 418 -2496
2019-07-14 14:46:31 GMT 49.993099 1.543876 25,450 325 418 -2496
2019-07-14 14:46:27 GMT 49.986023 1.551151 25,300 322 419 -2496
2019-07-14 14:46:20 GMT 49.976440 1.561793 25,550 323 418 -2432
2019-07-14 14:46:17 GMT 49.970581 1.568732 26,150 321 419 -2496
2019-07-14 14:46:12 GMT 49.961609 1.580152 26,325 320 420 -2560
2019-07-14 14:46:09 GMT 49.958511 1.584258 26,150 320 420 -2624
2019-07-14 14:46:06 GMT 49.944221 1.602816 26,275 320 420 -3008
2019-07-14 14:46:00 GMT 49.944221 1.602816 26,475 321 421 -2688
2019-07-14 14:45:57 GMT 49.935974 1.613545 26,700 320 423 -2816
2019-07-14 14:45:54 GMT 49.935974 1.613545 26,650 320 423 -2880
2019-07-14 14:45:50 GMT 49.928951 1.622636 28,075 321 426 -2560
2019-07-14 14:45:47 GMT 49.924435 1.628500 27,075 320 424 -2624
2019-07-14 14:45:42 GMT 49.918430 1.636295 27,375 321 425 -2624
2019-07-14 14:45:39 GMT 49.912262 1.644335 27,675 320 427 -2368
2019-07-14 14:45:36 GMT 49.909397 1.648023 27,500 320 425 -2560
2019-07-14 14:45:33 GMT 49.904755 1.654165 27,575 320 427 -2496
2019-07-14 14:45:30 GMT 49.899437 1.661014 27,800 320 430 -2304
2019-07-14 14:45:26 GMT 49.895203 1.666581 28,100 320 430 -2304
2019-07-14 14:45:22 GMT 49.887287 1.676825 28,050 320 431 -2240
2019-07-14 14:45:19 GMT 49.884109 1.680980 28,475 320 431 -2240
2019-07-14 14:45:16 GMT 49.877701 1.689365 28,350 320 432 -2304
2019-07-14 14:45:13 GMT 49.872669 1.695903 29,550 320 432 -2048
2019-07-14 14:45:08 GMT 49.865158 1.705627 28,900 321 437 0
2019-07-14 14:45:05 GMT 49.862411 1.709241 28,825 320 435 -768
2019-07-14 14:45:02 GMT 49.857513 1.715602 28,825 321 438 -384
2019-07-14 14:44:58 GMT 49.851654 1.723191 28,825 321 436 -512
2019-07-14 14:44:54 GMT 49.843918 1.733166 28,950 321 438 -512
2019-07-14 14:44:51 GMT 49.833389 1.746826 28,975 321 437 0
2019-07-14 14:44:46 GMT 49.833389 1.746826 28,975 321 438 0
2019-07-14 14:44:43 GMT 49.826523 1.755644 28,975 321 438 0
2019-07-14 14:44:40 GMT 49.820938 1.762872 28,975 321 433 -320
2019-07-14 14:44:34 GMT 49.813202 1.772846 29,000 321 435 -128
2019-07-14 14:44:31 GMT 49.809174 1.778050 28,975 321 435 -128
2019-07-14 14:44:26 GMT 49.802673 1.786362 29,775 321 431 -320
2019-07-14 14:44:23 GMT 49.793427 1.798216 29,025 321 431 -384
2019-07-14 14:44:20 GMT 49.783676 1.810793 29,725 321 427 -1344
2019-07-14 14:44:16 GMT 49.778679 1.817198 29,075 321 425 -832
2019-07-14 14:44:12 GMT 49.778679 1.817198 29,125 321 429 -1792
2019-07-14 14:44:07 GMT 49.772507 1.825176 29,300 321 428 -1600
2019-07-14 14:44:04 GMT 49.768112 1.830857 29,250 321 427 -1344
2019-07-14 14:44:01 GMT 49.764481 1.835533 29,250 321 427 -1472
2019-07-14 14:43:58 GMT 49.757675 1.844330 29,600 321 431 -2368
2019-07-14 14:43:55 GMT 49.747879 1.856906 29,550 321 430 -2048
2019-07-14 14:43:50 GMT 49.747879 1.856906 29,550 321 430 -2176
2019-07-14 14:43:47 GMT 49.742706 1.863628 31,000 321 431 -2688
2019-07-14 14:43:43 GMT 49.735931 1.872302 29,775 321 431 -2688
2019-07-14 14:43:38 GMT 49.729660 1.880369 30,075 321 430 -2688
2019-07-14 14:43:34 GMT 49.721096 1.891356 30,300 321 430 -1600
2019-07-14 14:43:29 GMT 49.714394 1.900041 30,550 321 431 -896
2019-07-14 14:43:26 GMT 49.709656 1.906128 30,975 321 430 -1600
2019-07-14 14:43:23 GMT 49.706589 1.910031 30,775 321 430 -1600
2019-07-14 14:43:17 GMT 49.695724 1.923944 30,875 321 430 -960
2019-07-14 14:43:14 GMT 49.689903 1.931367 30,975 321 431 -448
2019-07-14 14:43:10 GMT 49.685486 1.937063 31,000 321 431 -192
2019-07-14 14:43:06 GMT 49.680687 1.943170 31,000 325 431 0
2019-07-14 14:43:03 GMT 49.672958 1.952820 31,000 322 430 0
2019-07-14 14:42:55 GMT 49.663055 1.964673 31,025 323 431 0
2019-07-14 14:42:52 GMT 49.657784 1.970784 31,000 322 430 0
2019-07-14 14:42:48 GMT 49.651688 1.977613 31,000 327 430 0
2019-07-14 14:42:45 GMT 49.645168 1.984665 31,025 326 431 0
2019-07-14 14:42:41 GMT 49.640606 1.989565 31,025 326 431 0
2019-07-14 14:42:38 GMT 49.630363 2.000180 31,025 327 429 0
2019-07-14 14:42:32 GMT 49.624454 2.006267 31,025 327 430 0
2019-07-14 14:42:29 GMT 49.619659 2.011221 31,000 326 429 0
2019-07-14 14:42:23 GMT 49.609222 2.022424 31,025 319 422 0
2019-07-14 14:42:19 GMT 49.595684 2.038038 31,000 321 431 0
2019-07-14 14:42:15 GMT 49.595684 2.038038 31,000 322 431 0
2019-07-14 14:42:12 GMT 49.586372 2.049544 31,000 321 431 0
2019-07-14 14:42:09 GMT 49.586372 2.049544 31,000 318 431 0
2019-07-14 14:42:05 GMT 49.581940 2.055238 31,000 319 431 0
2019-07-14 14:42:00 GMT 49.573563 2.066514 31,000 319 432 0
2019-07-14 14:41:57 GMT 49.569672 2.071790 31,000 318 429 0
2019-07-14 14:41:54 GMT 49.558456 2.087475 31,025 318 431 0
2019-07-14 14:41:49 GMT 49.552158 2.096236 31,025 318 430 0
2019-07-14 14:41:45 GMT 49.552158 2.096236 31,025 318 430 0
2019-07-14 14:41:42 GMT 49.548897 2.100764 31,000 318 430 64
2019-07-14 14:41:39 GMT 49.541702 2.110821 31,000 318 429 0
2019-07-14 14:41:36 GMT 49.538006 2.115982 31,000 318 430 0
2019-07-14 14:41:33 GMT 49.533585 2.122069 31,000 318 429 0
2019-07-14 14:41:30 GMT 49.530045 2.126968 31,000 318 429 0
2019-07-14 14:41:27 GMT 49.526833 2.131496 31,000 318 429 0
2019-07-14 14:41:23 GMT 49.520084 2.140924 31,000 318 429 0
2019-07-14 14:41:20 GMT 49.515659 2.147011 31,000 318 428 0
2019-07-14 14:41:17 GMT 49.512314 2.151730 31,000 319 427 0
2019-07-14 14:41:12 GMT 49.504814 2.162080 31,000 318 427 0
2019-07-14 14:41:08 GMT 49.498390 2.170988 31,025 319 427 0
2019-07-14 14:41:05 GMT 49.493225 2.178112 31,000 319 427 0
2019-07-14 14:41:02 GMT 49.488705 2.184423 31,000 319 429 0
2019-07-14 14:40:58 GMT 49.482235 2.193331 31,000 319 427 0
2019-07-14 14:40:55 GMT 49.477112 2.200446 31,025 319 427 0
2019-07-14 14:40:49 GMT 49.469620 2.210776 31,025 319 428 0
2019-07-14 14:40:44 GMT 49.463882 2.218660 31,025 319 429 64
2019-07-14 14:40:40 GMT 49.456028 2.229408 31,000 319 429 64
2019-07-14 14:40:36 GMT 49.446442 2.242584 31,000 319 429 0
2019-07-14 14:40:33 GMT 49.439175 2.252494 31,000 319 423 0
2019-07-14 14:40:28 GMT 49.439175 2.252494 31,000 319 429 0
2019-07-14 14:40:24 GMT 49.432098 2.262219 31,025 319 423 64
2019-07-14 14:40:17 GMT 49.423534 2.273881 31,025 319 426 0
2019-07-14 14:40:14 GMT 49.417667 2.281904 31,025 319 425 64
2019-07-14 14:40:11 GMT 49.407986 2.294986 31,000 319 423 64
2019-07-14 14:40:07 GMT 49.407986 2.294986 31,000 319 423 64
2019-07-14 14:40:03 GMT 49.401840 2.303370 31,000 319 423 64
2019-07-14 14:40:00 GMT 49.397598 2.309101 31,000 319 423 0
2019-07-14 14:39:56 GMT 49.393044 2.315296 31,000 319 420 0
2019-07-14 14:39:53 GMT 49.385880 2.325017 31,000 319 422 64
2019-07-14 14:39:50 GMT 49.384415 2.326989 31,000 320 405 64
2019-07-14 14:39:46 GMT 49.376423 2.337847 31,000 319 421 0
2019-07-14 14:39:42 GMT 49.370407 2.345933 31,000 319 420 0
2019-07-14 14:39:39 GMT 49.368229 2.348906 31,000 319 420 0
2019-07-14 14:39:36 GMT 49.363174 2.355793 31,000 319 413 -64
2019-07-14 14:39:31 GMT 49.351593 2.371427 31,000 319 416 0
2019-07-14 14:39:25 GMT 49.347980 2.376299 31,000 319 415 0
2019-07-14 14:39:21 GMT 49.340927 2.385794 31,000 319 413 -64
2019-07-14 14:39:18 GMT 49.336761 2.391333 31,025 319 411 -64
2019-07-14 14:39:14 GMT 49.331081 2.399067 31,025 319 411 -128
2019-07-14 14:39:11 GMT 49.325958 2.405934 31,025 319 407 -128
2019-07-14 14:39:06 GMT 49.313965 2.421992 31,000 320 404 0
2019-07-14 14:39:02 GMT 49.313965 2.421992 31,050 319 401 0
2019-07-14 14:38:55 GMT 49.304314 2.434845 31,025 320 402 0
2019-07-14 14:38:52 GMT 49.300121 2.440483 31,025 320 404 0
2019-07-14 14:38:49 GMT 49.295887 2.446048 31,025 320 404 0
2019-07-14 14:38:44 GMT 49.287971 2.456529 31,000 320 405 64
2019-07-14 14:38:41 GMT 49.284855 2.460648 31,025 320 405 64
2019-07-14 14:38:38 GMT 49.281281 2.465304 31,025 320 406 64
2019-07-14 14:38:35 GMT 49.274734 2.473896 31,000 320 406 128
2019-07-14 14:38:32 GMT 49.271851 2.477558 31,000 320 407 128
2019-07-14 14:38:29 GMT 49.267273 2.483544 31,000 320 407 128
2019-07-14 14:38:26 GMT 49.263161 2.488982 30,975 327 375 -896
2019-07-14 14:38:22 GMT 49.252670 2.502559 30,975 320 407 64
2019-07-14 14:38:18 GMT 49.252670 2.502559 30,975 320 403 64
2019-07-14 14:38:13 GMT 49.244110 2.513686 30,975 320 403 64
2019-07-14 14:38:10 GMT 49.241272 2.517418 30,975 320 403 64
2019-07-14 14:38:05 GMT 49.233902 2.526996 30,975 320 401 64
2019-07-14 14:38:01 GMT 49.226196 2.537047 30,975 320 393 -256
2019-07-14 14:37:58 GMT 49.222286 2.542106 31,250 320 380 -1472
2019-07-14 14:37:54 GMT 49.217030 2.549045 31,000 320 393 -320
2019-07-14 14:37:50 GMT 49.213028 2.554251 31,025 320 390 -448
2019-07-14 14:37:47 GMT 49.209183 2.559251 31,025 320 390 -448
2019-07-14 14:37:44 GMT 49.205109 2.564603 31,150 327 375 -896
2019-07-14 14:37:40 GMT 49.199013 2.572535 31,100 320 381 -896
2019-07-14 14:37:36 GMT 49.193146 2.580197 31,175 320 380 -1088
2019-07-14 14:37:32 GMT 49.187794 2.587136 31,225 320 380 -1856
2019-07-14 14:37:28 GMT 49.183411 2.592914 31,300 320 380 -1664
2019-07-14 14:37:25 GMT 49.178715 2.599062 32,425 320 381 -2304
2019-07-14 14:37:19 GMT 49.170940 2.609108 31,625 322 381 -3008
2019-07-14 14:37:16 GMT 49.167847 2.613126 31,800 321 381 -2944
2019-07-14 14:37:13 GMT 49.156368 2.626889 32,700 326 377 -3136
2019-07-14 14:37:09 GMT 49.156368 2.626889 32,250 325 378 -3456
2019-07-14 14:37:06 GMT 49.151855 2.631948 32,325 325 378 -3392
2019-07-14 14:37:03 GMT 49.149014 2.635056 33,750 327 377 -2880
2019-07-14 14:37:00 GMT 49.144272 2.640029 32,675 326 377 -3008
2019-07-14 14:36:57 GMT 49.140518 2.643902 32,825 327 377 -2880
2019-07-14 14:36:54 GMT 49.136028 2.648500 33,100 327 376 -2752
2019-07-14 14:36:51 GMT 49.131546 2.653057 33,750 327 375 -2304
2019-07-14 14:36:48 GMT 49.126648 2.658128 33,225 327 376 -2688
2019-07-14 14:36:42 GMT 49.118988 2.665919 33,325 327 376 -2688
2019-07-14 14:36:39 GMT 49.113773 2.671196 33,625 327 375 -2368
2019-07-14 14:36:36 GMT 49.109444 2.675605 33,725 327 375 -2112
2019-07-14 14:36:33 GMT 49.105118 2.680014 33,800 327 374 -2048
2019-07-14 14:36:29 GMT 49.098457 2.686735 34,000 327 374 -1600
2019-07-14 14:36:26 GMT 49.094284 2.690946 33,975 327 374 -1600
2019-07-14 14:36:23 GMT 49.091568 2.693746 34,075 327 375 -1024
2019-07-14 14:36:19 GMT 49.082584 2.702854 34,175 327 375 -896
2019-07-14 14:36:16 GMT 49.080460 2.705031 34,225 327 375 -768
2019-07-14 14:36:13 GMT 49.076111 2.709398 34,250 327 375 -768
2019-07-14 14:36:08 GMT 49.068432 2.717165 34,325 327 375 -704
2019-07-14 14:36:05 GMT 49.064102 2.721574 34,375 327 375 -704
2019-07-14 14:36:02 GMT 49.060379 2.725332 34,375 327 375 -576
2019-07-14 14:35:59 GMT 49.056747 2.729018 34,450 327 374 -576
2019-07-14 14:35:54 GMT 49.049114 2.736752 34,475 327 374 -512
2019-07-14 14:35:51 GMT 49.045341 2.740583 34,500 327 374 -512
2019-07-14 14:35:47 GMT 49.038174 2.747883 34,525 327 374 -512
2019-07-14 14:35:43 GMT 49.032402 2.753738 34,575 327 374 -512
2019-07-14 14:35:35 GMT 49.022507 2.763766 34,775 327 374 -576
2019-07-14 14:35:32 GMT 49.017178 2.769205 34,775 327 374 -576
2019-07-14 14:35:29 GMT 49.013409 2.772964 34,675 327 375 -576
2019-07-14 14:35:23 GMT 49.004421 2.782071 34,750 327 377 -640
2019-07-14 14:35:20 GMT 49.000095 2.786480 34,775 327 378 -704
2019-07-14 14:35:17 GMT 48.994274 2.792334 34,975 327 380 -704
2019-07-14 14:35:14 GMT 48.991341 2.795298 34,850 327 379 -704
2019-07-14 14:35:11 GMT 48.986206 2.800457 34,875 327 380 -768
2019-07-14 14:35:08 GMT 48.983276 2.803415 34,925 327 381 -704
2019-07-14 14:35:03 GMT 48.975357 2.811444 34,975 327 380 64
2019-07-14 14:35:00 GMT 48.971416 2.815391 35,025 327 380 0
2019-07-14 14:34:57 GMT 48.961128 2.825799 35,000 327 380 64
2019-07-14 14:34:54 GMT 48.961128 2.825799 35,025 327 380 0
2019-07-14 14:34:51 GMT 48.958199 2.828763 35,025 327 379 0
2019-07-14 14:34:47 GMT 48.943581 2.843507 35,025 327 380 64
2019-07-14 14:34:41 GMT 48.943581 2.843507 35,000 327 380 64
2019-07-14 14:34:38 GMT 48.939484 2.847627 35,025 327 380 64
2019-07-14 14:34:35 GMT 48.934067 2.853135 35,000 327 380 0
2019-07-14 14:34:32 GMT 48.930683 2.856518 35,000 327 379 0
2019-07-14 14:34:28 GMT 48.924820 2.862444 35,000 327 380 0
2019-07-14 14:34:25 GMT 48.920444 2.866853 35,000 327 380 -64
2019-07-14 14:34:21 GMT 48.912689 2.874685 35,025 327 380 -64
2019-07-14 14:34:18 GMT 48.904221 2.883277 35,025 327 379 0
2019-07-14 14:34:14 GMT 48.904221 2.883277 35,025 327 379 0
2019-07-14 14:34:08 GMT 48.894142 2.893380 35,025 327 378 0
2019-07-14 14:34:04 GMT 48.887283 2.900250 35,000 327 379 0
2019-07-14 14:34:00 GMT 48.882782 2.904800 35,000 327 380 0
2019-07-14 14:33:56 GMT 48.877945 2.909687 35,000 327 383 0
2019-07-14 14:33:53 GMT 48.872360 2.915321 35,000 327 381 0
2019-07-14 14:33:50 GMT 48.867233 2.920484 35,000 327 382 0
2019-07-14 14:33:45 GMT 48.860870 2.926800 35,000 327 383 0
2019-07-14 14:33:41 GMT 48.855736 2.932049 35,000 327 383 0
2019-07-14 14:33:38 GMT 48.843262 2.944480 35,000 327 386 0
2019-07-14 14:33:33 GMT 48.838394 2.949407 35,000 327 386 0
2019-07-14 14:33:30 GMT 48.838394 2.949407 35,000 327 388 0
2019-07-14 14:33:27 GMT 48.834824 2.952998 35,000 327 386 0
2019-07-14 14:33:24 GMT 48.829742 2.958069 35,025 327 386 -64
2019-07-14 14:33:20 GMT 48.824066 2.963773 35,025 327 386 -64
2019-07-14 14:33:17 GMT 48.819752 2.968043 35,025 327 386 0
2019-07-14 14:33:14 GMT 48.809784 2.978070 35,025 327 386 0
2019-07-14 14:33:10 GMT 48.809784 2.978070 35,025 327 386 0
2019-07-14 14:33:07 GMT 48.804577 2.983294 35,000 327 386 0
2019-07-14 14:33:03 GMT 48.797127 2.990739 35,000 327 386 64
2019-07-14 14:33:00 GMT 48.793869 2.993991 35,000 327 388 64
2019-07-14 14:32:57 GMT 48.790695 2.997155 35,000 327 388 0
2019-07-14 14:32:53 GMT 48.774967 3.012856 35,000 327 389 64
2019-07-14 14:32:48 GMT 48.774967 3.012856 35,000 327 389 -64
2019-07-14 14:32:42 GMT 48.761032 3.026804 35,000 327 389 0
2019-07-14 14:32:38 GMT 48.761032 3.026804 35,000 327 389 0
2019-07-14 14:32:35 GMT 48.755905 3.031945 35,000 327 389 -64
2019-07-14 14:32:32 GMT 48.744385 3.043502 35,000 327 389 -64
2019-07-14 14:32:28 GMT 48.744385 3.043502 35,000 327 389 0
2019-07-14 14:32:24 GMT 48.739868 3.047983 35,000 327 388 -128
2019-07-14 14:32:20 GMT 48.735214 3.052579 35,025 327 388 0
2019-07-14 14:32:15 GMT 48.726646 3.060993 35,025 327 388 -128
2019-07-14 14:32:12 GMT 48.716778 3.070823 35,025 327 387 -192
2019-07-14 14:32:05 GMT 48.711704 3.075883 35,025 327 390 -192
2019-07-14 14:32:02 GMT 48.699970 3.087592 35,050 327 391 -576
2019-07-14 14:31:58 GMT 48.699970 3.087592 35,075 327 391 -576
2019-07-14 14:31:55 GMT 48.695736 3.091784 35,075 327 392 -576
2019-07-14 14:31:50 GMT 48.689529 3.098004 35,125 327 394 -896
2019-07-14 14:31:47 GMT 48.685123 3.102337 35,175 327 395 -896
2019-07-14 14:31:44 GMT 48.680099 3.107370 35,225 327 395 -704
2019-07-14 14:31:36 GMT 48.666176 3.121201 35,350 327 396 -768
2019-07-14 14:31:33 GMT 48.663101 3.124309 35,425 327 396 -832
2019-07-14 14:31:30 GMT 48.657005 3.130381 35,525 327 395 -704
2019-07-14 14:31:25 GMT 48.651791 3.135585 35,500 327 395 -768
2019-07-14 14:31:22 GMT 48.646774 3.140611 35,625 327 396 -704
2019-07-14 14:31:12 GMT 48.631485 3.155752 35,650 327 395 -704
2019-07-14 14:31:08 GMT 48.624649 3.162545 35,700 327 397 -896
2019-07-14 14:31:02 GMT 48.615601 3.171457 35,975 327 397 0
2019-07-14 14:30:54 GMT 48.604568 3.182443 35,975 327 398 -896
2019-07-14 14:30:50 GMT 48.596878 3.190049 35,950 327 399 -640
2019-07-14 14:30:46 GMT 48.590698 3.196106 36,000 327 398 -256
2019-07-14 14:30:43 GMT 48.585918 3.200852 36,000 327 400 0
2019-07-14 14:30:38 GMT 48.579620 3.207163 36,000 327 399 -64
2019-07-14 14:30:35 GMT 48.572975 3.213718 36,000 327 399 -64
2019-07-14 14:30:32 GMT 48.569733 3.216952 36,000 327 399 -64
2019-07-14 14:30:28 GMT 48.552750 3.233783 36,050 328 393 0
2019-07-14 14:30:22 GMT 48.552750 3.233783 36,025 327 402 -64
2019-07-14 14:30:15 GMT 48.543137 3.243291 36,025 327 403 0
2019-07-14 14:30:12 GMT 48.536713 3.249640 36,025 327 403 0
2019-07-14 14:30:09 GMT 48.525169 3.261060 36,025 327 404 0
2019-07-14 14:30:04 GMT 48.525169 3.261060 36,025 327 406 64
2019-07-14 14:29:59 GMT 48.517181 3.268996 36,000 327 408 0
2019-07-14 14:29:51 GMT 48.506268 3.279708 36,050 327 411 -256
2019-07-14 14:29:48 GMT 48.499100 3.286743 36,050 327 412 -64
2019-07-14 14:29:43 GMT 48.487656 3.298082 36,050 327 411 0
2019-07-14 14:29:40 GMT 48.484451 3.301180 36,050 327 411 0
2019-07-14 14:29:32 GMT 48.476486 3.308998 36,050 327 411 0
2019-07-14 14:29:29 GMT 48.470329 3.315125 36,050 327 411 0
2019-07-14 14:29:23 GMT 48.459854 3.325460 36,050 327 411 0
2019-07-14 14:29:17 GMT 48.452042 3.333153 36,050 327 411 0
2019-07-14 14:29:14 GMT 48.446320 3.338717 36,050 327 406 64
2019-07-14 14:29:11 GMT 48.442520 3.342520 36,050 327 411 0
2019-07-14 14:29:08 GMT 48.436478 3.348436 36,050 327 411 0
2019-07-14 14:29:00 GMT 48.423798 3.360901 36,075 327 410 0
2019-07-14 14:28:56 GMT 48.417160 3.367521 36,050 327 410 0
2019-07-14 14:28:48 GMT 48.406834 3.377573 35,975 327 409 64
2019-07-14 14:28:44 GMT 48.399570 3.384729 36,050 327 406 64
2019-07-14 14:28:39 GMT 48.390244 3.393930 36,025 327 408 128
2019-07-14 14:28:33 GMT 48.380768 3.403226 36,025 327 407 64
2019-07-14 14:28:26 GMT 48.371498 3.412339 36,000 327 406 64
2019-07-14 14:28:20 GMT 48.361725 3.421880 35,975 327 406 64
2019-07-14 14:28:16 GMT 48.355316 3.428227 35,975 327 406 0
2019-07-14 14:28:13 GMT 48.350456 3.432938 35,975 327 404 0
2019-07-14 14:28:10 GMT 48.345566 3.437735 35,975 327 403 0
2019-07-14 14:28:07 GMT 48.339470 3.443708 35,975 327 402 64
2019-07-14 14:28:04 GMT 48.335747 3.447394 35,950 328 393 0
2019-07-14 14:28:01 GMT 48.331833 3.451186 35,975 327 401 0
2019-07-14 14:27:57 GMT 48.325459 3.457441 35,950 327 401 64
2019-07-14 14:27:50 GMT 48.314438 3.468229 35,950 327 400 0
2019-07-14 14:27:47 GMT 48.311050 3.471609 35,950 327 400 0
2019-07-14 14:27:44 GMT 48.305023 3.477462 35,950 327 397 0
2019-07-14 14:27:38 GMT 48.292511 3.489709 35,950 327 397 0
2019-07-14 14:27:32 GMT 48.285004 3.497049 35,950 327 397 0
2019-07-14 14:27:24 GMT 48.274254 3.507530 35,950 328 394 0
2019-07-14 14:27:18 GMT 48.265549 3.515977 35,950 327 394 0
2019-07-14 14:27:15 GMT 48.260799 3.520612 35,950 328 394 0
2019-07-14 14:27:12 GMT 48.255909 3.525310 35,950 328 393 0
2019-07-14 14:27:03 GMT 48.241013 3.539838 35,950 327 391 0
2019-07-14 14:26:52 GMT 48.226490 3.554005 35,950 327 389 0
2019-07-14 14:26:49 GMT 48.220276 3.560063 35,950 327 388 0
2019-07-14 14:26:45 GMT 48.214874 3.565345 35,975 327 388 0
2019-07-14 14:26:41 GMT 48.208878 3.571190 35,975 327 388 0
2019-07-14 14:26:32 GMT 48.191017 3.588626 35,975 328 388 0
2019-07-14 14:26:21 GMT 48.178120 3.601130 35,975 329 387 0
2019-07-14 14:26:12 GMT 48.165318 3.612912 35,975 330 388 0
2019-07-14 14:26:07 GMT 48.158340 3.619034 35,975 330 387 0
2019-07-14 14:26:04 GMT 48.152939 3.623728 35,975 330 387 0
2019-07-14 14:25:59 GMT 48.145340 3.630295 35,975 330 387 0
2019-07-14 14:25:54 GMT 48.138691 3.636052 35,975 330 387 0
2019-07-14 14:25:48 GMT 48.128357 3.645058 35,975 330 387 0
2019-07-14 14:25:45 GMT 48.123562 3.649222 35,975 330 387 0
2019-07-14 14:25:40 GMT 48.114578 3.656968 35,975 330 387 0
2019-07-14 14:25:37 GMT 48.111504 3.659715 35,975 330 387 0
2019-07-14 14:25:34 GMT 48.105789 3.664627 35,975 330 387 0
2019-07-14 14:25:29 GMT 48.093536 3.675208 35,975 330 387 0
2019-07-14 14:25:26 GMT 48.093536 3.675208 35,975 330 387 0
2019-07-14 14:25:23 GMT 48.090637 3.677742 35,975 330 387 0
2019-07-14 14:25:18 GMT 48.073425 3.692603 35,975 330 387 0
2019-07-14 14:25:12 GMT 48.073425 3.692603 35,975 330 387 0
2019-07-14 14:25:06 GMT 48.064316 3.700470 35,975 330 387 0
2019-07-14 14:25:03 GMT 48.058575 3.705421 35,975 330 387 0
2019-07-14 14:24:59 GMT 48.052231 3.710907 35,975 330 387 0
2019-07-14 14:24:53 GMT 48.043072 3.718802 35,975 330 387 0
2019-07-14 14:24:49 GMT 48.037033 3.724022 35,975 330 387 0
2019-07-14 14:24:42 GMT 48.025269 3.734184 35,975 330 387 0
2019-07-14 14:24:38 GMT 48.019798 3.738873 35,975 330 388 -64
2019-07-14 14:24:31 GMT 48.007416 3.749577 35,975 330 388 -64
2019-07-14 14:24:27 GMT 48.002712 3.753592 36,000 331 388 -64
2019-07-14 14:24:20 GMT 47.991394 3.763367 36,000 331 388 0
2019-07-14 14:24:17 GMT 47.981297 3.772043 36,000 330 390 0
2019-07-14 14:24:13 GMT 47.981297 3.772043 36,000 331 388 0
2019-07-14 14:24:06 GMT 47.970684 3.781128 36,000 330 389 0
2019-07-14 14:24:02 GMT 47.964340 3.786644 36,000 330 389 0
2019-07-14 14:23:58 GMT 47.954811 3.794790 36,025 331 390 0
2019-07-14 14:23:55 GMT 47.953274 3.796128 36,025 331 390 0
2019-07-14 14:23:52 GMT 47.949371 3.799484 36,050 330 389 0
2019-07-14 14:23:45 GMT 47.935959 3.811020 36,025 330 390 0
2019-07-14 14:23:36 GMT 47.923141 3.822075 36,025 331 393 -64
2019-07-14 14:23:33 GMT 47.919067 3.825577 36,025 331 393 -64
2019-07-14 14:23:28 GMT 47.911701 3.831834 36,025 331 392 -64
2019-07-14 14:23:24 GMT 47.903366 3.838966 36,050 331 392 -64
2019-07-14 14:23:21 GMT 47.900848 3.841164 36,050 331 393 -64
2019-07-14 14:23:18 GMT 47.896133 3.845215 36,050 331 392 0
2019-07-14 14:23:13 GMT 47.887985 3.852219 36,050 331 393 -64
2019-07-14 14:23:10 GMT 47.883270 3.856201 36,050 331 393 -64
2019-07-14 14:23:02 GMT 47.869995 3.867531 36,050 331 394 0
2019-07-14 14:22:52 GMT 47.854073 3.881202 36,050 331 394 0
2019-07-14 14:22:49 GMT 47.850769 3.884079 36,050 331 394 0
2019-07-14 14:22:43 GMT 47.839222 3.893949 36,050 331 396 0
2019-07-14 14:22:39 GMT 47.834290 3.898155 36,000 331 396 0
2019-07-14 14:22:31 GMT 47.820969 3.909554 36,050 331 396 0
2019-07-14 14:22:28 GMT 47.817017 3.912964 36,050 331 397 0
2019-07-14 14:22:20 GMT 47.804585 3.923528 36,050 331 397 0
2019-07-14 14:22:16 GMT 47.797604 3.929514 36,050 331 397 0
2019-07-14 14:22:10 GMT 47.788513 3.937294 36,025 331 399 0
2019-07-14 14:22:07 GMT 47.782150 3.942719 36,025 330 390 0
2019-07-14 14:22:00 GMT 47.771767 3.951557 36,025 331 398 64
2019-07-14 14:21:56 GMT 47.765064 3.957261 36,025 331 399 64
2019-07-14 14:21:49 GMT 47.754639 3.966064 36,000 331 399 0
2019-07-14 14:21:44 GMT 47.744255 3.974938 36,000 331 400 0
2019-07-14 14:21:40 GMT 47.738663 3.979729 36,000 331 400 0
2019-07-14 14:21:32 GMT 47.726807 3.989822 36,000 331 399 0
2019-07-14 14:21:24 GMT 47.714832 4.000009 36,000 331 399 0
2019-07-14 14:21:21 GMT 47.709389 4.004657 36,000 331 399 0
2019-07-14 14:21:18 GMT 47.704266 4.009024 36,000 331 399 0
2019-07-14 14:21:14 GMT 47.698013 4.014267 36,000 331 399 0
2019-07-14 14:21:10 GMT 47.691463 4.019869 36,000 331 399 0
2019-07-14 14:21:07 GMT 47.687805 4.022987 36,000 331 399 0
2019-07-14 14:21:04 GMT 47.681549 4.028320 36,000 331 399 0
2019-07-14 14:21:00 GMT 47.677078 4.032123 36,000 331 399 0
2019-07-14 14:20:56 GMT 47.669266 4.038780 36,000 331 399 0
2019-07-14 14:20:48 GMT 47.656769 4.049355 36,000 331 398 0
2019-07-14 14:20:44 GMT 47.649940 4.055223 36,000 331 398 0
2019-07-14 14:20:39 GMT 47.641933 4.061984 36,000 331 398 0
2019-07-14 14:20:32 GMT 47.631737 4.070646 36,000 331 398 0
2019-07-14 14:20:29 GMT 47.627270 4.074449 36,000 331 398 0
2019-07-14 14:20:25 GMT 47.620697 4.079979 36,000 331 398 0
2019-07-14 14:20:19 GMT 47.611256 4.087970 36,000 331 398 0
2019-07-14 14:20:13 GMT 47.601837 4.095909 36,000 331 398 0
2019-07-14 14:20:10 GMT 47.594028 4.102548 36,000 331 398 0
2019-07-14 14:20:07 GMT 47.590988 4.105110 36,000 331 398 0
2019-07-14 14:20:04 GMT 47.586349 4.109028 36,000 331 398 0
2019-07-14 14:19:56 GMT 47.573593 4.119803 36,000 331 398 0
2019-07-14 14:19:53 GMT 47.568752 4.123817 36,000 331 398 0
2019-07-14 14:19:46 GMT 47.557755 4.133125 36,000 331 398 0
2019-07-14 14:19:42 GMT 47.551201 4.138677 36,000 331 398 0
2019-07-14 14:19:39 GMT 47.546585 4.142601 36,000 331 398 0
2019-07-14 14:19:34 GMT 47.539703 4.148395 36,000 331 398 0
2019-07-14 14:19:31 GMT 47.534256 4.152973 36,000 331 398 0
2019-07-14 14:19:28 GMT 47.529461 4.156987 36,000 331 398 0
2019-07-14 14:19:22 GMT 47.519714 4.165192 36,000 331 398 0
2019-07-14 14:19:18 GMT 47.507721 4.175298 36,000 331 398 0
2019-07-14 14:19:15 GMT 47.507721 4.175298 36,000 331 398 0
2019-07-14 14:19:12 GMT 47.502323 4.179875 36,000 331 398 0
2019-07-14 14:19:07 GMT 47.494640 4.186354 36,000 331 398 0
2019-07-14 14:19:03 GMT 47.489197 4.190932 36,000 331 398 0
2019-07-14 14:19:00 GMT 47.484074 4.195228 36,000 331 399 0
2019-07-14 14:18:56 GMT 47.477043 4.201144 35,975 331 398 0
2019-07-14 14:18:50 GMT 47.468758 4.208116 35,975 331 399 0
2019-07-14 14:18:47 GMT 47.462334 4.213468 35,975 331 399 0
2019-07-14 14:18:38 GMT 47.442993 4.229805 36,000 331 398 0
2019-07-14 14:18:28 GMT 47.433239 4.237976 36,000 331 398 0
2019-07-14 14:18:22 GMT 47.423927 4.245793 36,000 331 398 0
2019-07-14 14:18:19 GMT 47.413239 4.254799 36,000 331 399 -64
2019-07-14 14:18:16 GMT 47.413239 4.254799 36,000 331 399 0
2019-07-14 14:18:12 GMT 47.408287 4.258963 36,000 331 400 0
2019-07-14 14:18:07 GMT 47.400421 4.265511 36,000 330 392 0
2019-07-14 14:18:02 GMT 47.390968 4.273470 36,000 331 399 0
2019-07-14 14:17:57 GMT 47.383614 4.279597 36,000 331 399 0
2019-07-14 14:17:54 GMT 47.379639 4.282951 36,000 331 399 0
2019-07-14 14:17:50 GMT 47.373047 4.288471 36,000 331 399 0
2019-07-14 14:17:46 GMT 47.364388 4.295725 36,000 331 399 0
2019-07-14 14:17:40 GMT 47.356247 4.302589 36,000 331 400 0
2019-07-14 14:17:36 GMT 47.349354 4.308331 36,000 331 399 0
2019-07-14 14:17:33 GMT 47.344509 4.312415 36,000 331 399 0
2019-07-14 14:17:29 GMT 47.336655 4.318932 36,000 331 399 0
2019-07-14 14:17:25 GMT 47.331989 4.322838 36,000 331 399 0
2019-07-14 14:17:21 GMT 47.324448 4.329177 36,000 331 399 0
2019-07-14 14:17:18 GMT 47.321373 4.331712 36,000 331 399 0
2019-07-14 14:17:14 GMT 47.314297 4.337628 36,000 331 399 0
2019-07-14 14:17:11 GMT 47.309647 4.341522 36,000 331 400 0
2019-07-14 14:17:07 GMT 47.296783 4.352234 36,000 331 400 0
2019-07-14 14:17:04 GMT 47.296783 4.352234 36,000 331 400 0
2019-07-14 14:16:58 GMT 47.289413 4.358414 36,000 330 393 0
2019-07-14 14:16:55 GMT 47.283966 4.363014 36,000 331 400 0
2019-07-14 14:16:48 GMT 47.272076 4.372911 36,000 330 393 -64
2019-07-14 14:16:44 GMT 47.266769 4.377348 36,000 331 400 -64
2019-07-14 14:16:41 GMT 47.261600 4.381643 36,000 331 400 -64
2019-07-14 14:16:38 GMT 47.256592 4.385811 36,000 331 400 -64
2019-07-14 14:16:33 GMT 47.248100 4.392911 36,025 331 401 0
2019-07-14 14:16:30 GMT 47.244049 4.396248 36,025 331 401 0
2019-07-14 14:16:27 GMT 47.239071 4.400447 36,025 331 401 0
2019-07-14 14:16:24 GMT 47.234879 4.403898 36,025 331 401 0
2019-07-14 14:16:20 GMT 47.227936 4.409706 36,025 331 401 0
2019-07-14 14:16:17 GMT 47.221481 4.415062 36,025 331 401 0
2019-07-14 14:16:10 GMT 47.204041 4.429482 36,025 331 404 0
2019-07-14 14:16:05 GMT 47.204041 4.429482 36,050 331 402 0
2019-07-14 14:15:59 GMT 47.192413 4.439163 36,050 331 402 -64
2019-07-14 14:15:54 GMT 47.186600 4.443970 36,050 331 402 0
2019-07-14 14:15:51 GMT 47.180599 4.448899 36,050 331 402 0
2019-07-14 14:15:48 GMT 47.175758 4.452984 36,050 331 403 0
2019-07-14 14:15:44 GMT 47.169567 4.458055 36,050 331 403 64
2019-07-14 14:15:39 GMT 47.160538 4.465590 36,025 331 403 64
2019-07-14 14:15:36 GMT 47.156479 4.468964 36,025 331 403 64
2019-07-14 14:15:33 GMT 47.150482 4.473971 36,025 331 403 64
2019-07-14 14:15:30 GMT 47.146896 4.476929 36,025 331 404 0
2019-07-14 14:15:23 GMT 47.134888 4.486929 36,025 331 404 0
2019-07-14 14:15:19 GMT 47.128693 4.492070 36,000 331 405 0
2019-07-14 14:15:16 GMT 47.123482 4.496366 36,000 331 405 0
2019-07-14 14:15:11 GMT 47.115463 4.502953 36,000 331 405 0
2019-07-14 14:15:07 GMT 47.109142 4.508197 36,000 331 405 0
2019-07-14 14:15:03 GMT 47.102097 4.514008 36,000 331 405 0
2019-07-14 14:15:00 GMT 47.098846 4.516685 36,000 331 405 0
2019-07-14 14:14:56 GMT 47.089916 4.524114 36,000 331 404 0
2019-07-14 14:14:49 GMT 47.080948 4.531517 36,000 331 405 0
2019-07-14 14:14:46 GMT 47.074448 4.536873 36,000 331 404 0
2019-07-14 14:14:41 GMT 47.063049 4.546280 36,000 331 403 0
2019-07-14 14:14:34 GMT 47.054398 4.553340 36,000 331 403 0
2019-07-14 14:14:27 GMT 47.043823 4.562073 36,000 331 404 0
2019-07-14 14:14:24 GMT 47.039932 4.565300 36,000 331 404 0
2019-07-14 14:14:18 GMT 47.029221 4.574158 36,000 331 404 0
2019-07-14 14:14:15 GMT 47.025162 4.577566 36,000 331 404 0
2019-07-14 14:14:08 GMT 47.013290 4.587341 36,000 331 404 0
2019-07-14 14:14:05 GMT 47.009033 4.590843 36,000 331 404 0
2019-07-14 14:14:02 GMT 46.995026 4.602379 36,000 331 404 0
2019-07-14 14:13:57 GMT 46.995026 4.602379 36,000 331 404 0
2019-07-14 14:13:54 GMT 46.990814 4.605881 36,000 331 404 0
2019-07-14 14:13:51 GMT 46.986557 4.609314 36,000 331 404 0
2019-07-14 14:13:44 GMT 46.973877 4.619751 36,000 331 404 0
2019-07-14 14:13:41 GMT 46.969158 4.623624 36,000 331 404 0
2019-07-14 14:13:33 GMT 46.955933 4.634445 36,000 331 403 0
2019-07-14 14:13:27 GMT 46.945541 4.643028 36,000 331 403 0
2019-07-14 14:13:24 GMT 46.935921 4.650949 36,000 331 402 0
2019-07-14 14:13:20 GMT 46.935921 4.650949 36,000 331 403 0
2019-07-14 14:13:16 GMT 46.918697 4.665105 36,000 331 403 0
2019-07-14 14:13:10 GMT 46.918697 4.665105 36,000 331 404 0
2019-07-14 14:13:03 GMT 46.907291 4.674471 36,000 331 404 0
2019-07-14 14:12:59 GMT 46.900635 4.679970 36,000 331 404 0
2019-07-14 14:12:51 GMT 46.887268 4.690887 36,000 331 404 0
2019-07-14 14:12:48 GMT 46.883377 4.694115 36,000 331 403 0
2019-07-14 14:12:44 GMT 46.877312 4.699050 36,025 331 403 0
2019-07-14 14:12:39 GMT 46.869370 4.705582 36,025 331 403 0
2019-07-14 14:12:36 GMT 46.863346 4.710526 36,025 331 403 0
2019-07-14 14:12:28 GMT 46.849056 4.722267 36,025 331 402 0
2019-07-14 14:12:24 GMT 46.843563 4.726799 36,025 331 402 0
2019-07-14 14:12:19 GMT 46.831055 4.737050 36,025 331 404 0
2019-07-14 14:12:16 GMT 46.831055 4.737050 36,025 331 402 64
2019-07-14 14:12:10 GMT 46.820663 4.745558 36,000 331 402 0
2019-07-14 14:12:05 GMT 46.813202 4.751654 36,000 331 403 0
2019-07-14 14:12:02 GMT 46.808510 4.755501 36,000 331 403 0
2019-07-14 14:11:59 GMT 46.802967 4.760033 36,025 331 403 0
2019-07-14 14:11:54 GMT 46.795670 4.766057 36,000 331 404 0
2019-07-14 14:11:51 GMT 46.788815 4.771637 36,000 331 403 0
2019-07-14 14:11:48 GMT 46.785419 4.774452 36,000 331 403 0
2019-07-14 14:11:43 GMT 46.777596 4.780838 36,025 331 403 0
2019-07-14 14:11:37 GMT 46.768661 4.788096 36,025 331 403 0
2019-07-14 14:11:33 GMT 46.761955 4.793541 36,025 331 404 0
2019-07-14 14:11:27 GMT 46.752365 4.801360 36,025 331 404 0
2019-07-14 14:11:22 GMT 46.743896 4.808193 36,025 331 403 0
2019-07-14 14:11:19 GMT 46.738541 4.812561 36,025 331 403 0
2019-07-14 14:11:15 GMT 46.726685 4.822261 36,025 331 403 0
2019-07-14 14:11:12 GMT 46.726685 4.822261 36,025 331 403 0
2019-07-14 14:11:05 GMT 46.713318 4.833114 36,025 331 403 0
2019-07-14 14:11:01 GMT 46.708466 4.837133 36,025 331 403 -64
2019-07-14 14:10:58 GMT 46.704372 4.840439 36,025 331 403 -64
2019-07-14 14:10:55 GMT 46.699356 4.844569 36,025 331 403 0
2019-07-14 14:10:50 GMT 46.690567 4.851737 36,025 331 403 0
2019-07-14 14:10:43 GMT 46.679325 4.860832 36,025 331 403 0
2019-07-14 14:10:39 GMT 46.673309 4.865738 36,025 331 403 0
2019-07-14 14:10:34 GMT 46.665161 4.872370 36,025 331 404 0
2019-07-14 14:10:28 GMT 46.655411 4.880274 36,025 331 404 0
2019-07-14 14:10:24 GMT 46.648369 4.885963 36,025 331 404 0
2019-07-14 14:10:19 GMT 46.640549 4.892281 36,025 331 404 0
2019-07-14 14:10:16 GMT 46.635658 4.896263 36,025 331 404 0
2019-07-14 14:10:13 GMT 46.631096 4.899971 36,025 331 404 0
2019-07-14 14:10:08 GMT 46.622952 4.906563 36,025 331 404 0
2019-07-14 14:10:05 GMT 46.615456 4.912674 36,025 331 404 0
2019-07-14 14:10:01 GMT 46.611374 4.915913 36,025 331 404 0
2019-07-14 14:09:58 GMT 46.606522 4.919932 36,025 331 404 0
2019-07-14 14:09:52 GMT 46.596230 4.928192 36,025 331 403 0
2019-07-14 14:09:48 GMT 46.590412 4.932999 36,025 331 403 0
2019-07-14 14:09:43 GMT 46.576859 4.943915 36,025 331 403 0
2019-07-14 14:09:40 GMT 46.571835 4.948036 36,025 331 403 0
2019-07-14 14:09:33 GMT 46.566147 4.952623 36,025 331 403 0
2019-07-14 14:09:30 GMT 46.560287 4.957380 36,000 331 403 0
2019-07-14 14:09:27 GMT 46.556194 4.960670 36,000 331 403 64
2019-07-14 14:09:20 GMT 46.542709 4.971581 36,000 331 403 0
2019-07-14 14:09:17 GMT 46.538971 4.974609 36,000 331 403 0
2019-07-14 14:09:14 GMT 46.534081 4.978592 36,000 331 403 0
2019-07-14 14:09:09 GMT 46.526913 4.984360 36,000 331 402 0
2019-07-14 14:09:06 GMT 46.521095 4.989098 36,000 331 402 0
2019-07-14 14:09:03 GMT 46.515556 4.993561 36,000 331 402 0
2019-07-14 14:09:00 GMT 46.510994 4.997200 36,000 331 402 0
2019-07-14 14:08:55 GMT 46.503662 5.003134 36,000 331 402 0
2019-07-14 14:08:51 GMT 46.497162 5.008359 36,000 331 402 0
2019-07-14 14:08:48 GMT 46.492630 5.012043 35,975 331 402 0
2019-07-14 14:08:45 GMT 46.488228 5.015533 35,975 331 402 0
2019-07-14 14:08:39 GMT 46.477196 5.024460 35,975 331 401 0
2019-07-14 14:08:34 GMT 46.460297 5.037987 35,975 331 401 0
2019-07-14 14:08:28 GMT 46.460297 5.037987 35,975 331 401 0
2019-07-14 14:08:24 GMT 46.453175 5.043755 35,975 331 401 0
2019-07-14 14:08:18 GMT 46.444096 5.051033 35,975 331 401 0
2019-07-14 14:08:15 GMT 46.437626 5.056252 35,975 331 400 0
2019-07-14 14:08:07 GMT 46.424034 5.067169 35,975 331 400 0
2019-07-14 14:08:04 GMT 46.421585 5.069119 35,975 331 399 0
2019-07-14 14:07:57 GMT 46.410919 5.077693 35,975 331 399 0
2019-07-14 14:07:54 GMT 46.405106 5.082383 36,000 331 399 0
2019-07-14 14:07:47 GMT 46.392052 5.092918 36,000 331 399 0
2019-07-14 14:07:43 GMT 46.387211 5.096764 36,000 331 399 0
2019-07-14 14:07:36 GMT 46.369629 5.110853 36,000 331 399 0
2019-07-14 14:07:32 GMT 46.369629 5.110853 36,000 331 399 0
2019-07-14 14:07:26 GMT 46.353043 5.124229 36,000 331 399 0
2019-07-14 14:07:22 GMT 46.353043 5.124229 36,000 331 398 0
2019-07-14 14:07:19 GMT 46.349304 5.127199 36,000 331 398 0
2019-07-14 14:07:14 GMT 46.334198 5.139324 36,000 331 398 0
2019-07-14 14:07:10 GMT 46.330185 5.142563 36,000 332 398 0
2019-07-14 14:07:04 GMT 46.324039 5.147438 36,000 331 399 0
2019-07-14 14:06:59 GMT 46.308426 5.159957 36,000 332 398 -64
2019-07-14 14:06:54 GMT 46.308426 5.159957 36,000 332 398 -64
2019-07-14 14:06:51 GMT 46.303089 5.164192 36,000 332 398 -64
2019-07-14 14:06:48 GMT 46.298767 5.167661 36,000 332 398 -64
2019-07-14 14:06:43 GMT 46.289265 5.175316 36,025 331 399 0
2019-07-14 14:06:39 GMT 46.283615 5.179786 36,025 331 399 0
2019-07-14 14:06:36 GMT 46.278442 5.183939 36,025 331 399 0
2019-07-14 14:06:32 GMT 46.272949 5.188293 36,025 332 400 0
2019-07-14 14:06:29 GMT 46.262497 5.196671 36,025 331 399 0
2019-07-14 14:06:25 GMT 46.262497 5.196671 36,025 332 400 0
2019-07-14 14:06:22 GMT 46.257156 5.200955 36,025 332 400 0
2019-07-14 14:06:19 GMT 46.252487 5.204704 36,025 332 400 0
2019-07-14 14:06:15 GMT 46.245689 5.210129 36,025 332 400 0
2019-07-14 14:06:12 GMT 46.234379 5.219124 36,025 332 400 0
2019-07-14 14:06:08 GMT 46.234379 5.219124 36,025 332 400 0
2019-07-14 14:06:02 GMT 46.220261 5.230363 36,025 332 401 0
2019-07-14 14:05:59 GMT 46.220261 5.230363 36,025 332 401 0
2019-07-14 14:05:56 GMT 46.215572 5.234093 36,025 332 401 0
2019-07-14 14:05:51 GMT 46.205704 5.242019 36,025 332 401 0
2019-07-14 14:05:47 GMT 46.199203 5.247177 36,025 332 401 0
2019-07-14 14:05:43 GMT 46.193344 5.251800 36,025 332 401 0
2019-07-14 14:05:40 GMT 46.188492 5.255685 36,025 331 401 0
2019-07-14 14:05:36 GMT 46.182632 5.260374 36,025 329 400 0
2019-07-14 14:05:33 GMT 46.176819 5.265131 36,025 330 401 0
2019-07-14 14:05:29 GMT 46.170929 5.270073 36,025 328 399 0
2019-07-14 14:05:25 GMT 46.164413 5.275782 36,025 328 400 0
2019-07-14 14:05:22 GMT 46.160339 5.279400 36,025 328 399 0
2019-07-14 14:05:19 GMT 46.150307 5.288818 36,025 327 399 0
2019-07-14 14:05:16 GMT 46.150307 5.288818 36,025 326 399 0
2019-07-14 14:05:11 GMT 46.143448 5.295544 36,000 325 399 64
2019-07-14 14:05:07 GMT 46.138000 5.301037 36,000 325 398 64
2019-07-14 14:05:02 GMT 46.129715 5.309813 36,000 324 398 0
2019-07-14 14:04:57 GMT 46.121861 5.318207 36,000 324 398 0
2019-07-14 14:04:53 GMT 46.116074 5.324350 36,000 324 398 0
2019-07-14 14:04:50 GMT 46.110039 5.330772 36,000 324 398 0
2019-07-14 14:04:47 GMT 46.107788 5.333192 36,000 324 398 0
2019-07-14 14:04:40 GMT 46.092533 5.349380 36,000 324 399 0
2019-07-14 14:04:37 GMT 46.092533 5.349380 36,000 324 399 0
2019-07-14 14:04:29 GMT 46.081146 5.361462 36,000 324 399 0
2019-07-14 14:04:26 GMT 46.075356 5.367645 36,000 324 399 0
2019-07-14 14:04:18 GMT 46.065022 5.378632 36,000 324 398 0
2019-07-14 14:04:15 GMT 46.060410 5.383502 36,000 324 398 0
2019-07-14 14:04:08 GMT 46.044308 5.400604 36,000 324 398 0
2019-07-14 14:04:04 GMT 46.044308 5.400604 36,000 324 398 0
2019-07-14 14:03:58 GMT 46.035278 5.410231 36,000 324 398 0
2019-07-14 14:03:55 GMT 46.029648 5.416193 36,025 324 398 0
2019-07-14 14:03:50 GMT 46.021774 5.424500 36,000 324 398 0
2019-07-14 14:03:43 GMT 46.009232 5.437897 36,025 324 399 0
2019-07-14 14:03:40 GMT 46.009232 5.437897 36,025 324 399 0
2019-07-14 14:03:36 GMT 45.996460 5.451429 36,025 324 399 0
2019-07-14 14:03:32 GMT 45.996460 5.451429 36,025 324 399 0
2019-07-14 14:03:29 GMT 45.991562 5.456566 36,025 324 399 0
2019-07-14 14:03:26 GMT 45.987095 5.461304 36,025 324 399 0
2019-07-14 14:03:22 GMT 45.981583 5.467105 36,025 324 399 0
2019-07-14 14:03:18 GMT 45.975632 5.473402 36,025 324 399 0
2019-07-14 14:03:15 GMT 45.969543 5.479843 36,025 324 399 0
2019-07-14 14:03:12 GMT 45.966431 5.483116 36,025 324 400 0
2019-07-14 14:03:08 GMT 45.961212 5.488632 36,025 324 400 0
2019-07-14 14:03:05 GMT 45.949898 5.500580 36,025 324 400 0
2019-07-14 14:03:01 GMT 45.949898 5.500580 36,025 324 401 0
2019-07-14 14:02:58 GMT 45.945602 5.505155 36,025 324 401 0
2019-07-14 14:02:52 GMT 45.936771 5.514450 36,025 324 400 0
2019-07-14 14:02:49 GMT 45.930252 5.521317 36,025 324 400 0
2019-07-14 14:02:46 GMT 45.928764 5.522896 36,025 324 400 0
2019-07-14 14:02:43 GMT 45.922478 5.529488 36,025 324 400 0
2019-07-14 14:02:40 GMT 45.919052 5.533090 36,025 324 400 0
2019-07-14 14:02:37 GMT 45.915031 5.537315 36,025 326 401 0
2019-07-14 14:02:33 GMT 45.908794 5.543907 36,000 324 400 0
2019-07-14 14:02:30 GMT 45.902786 5.550224 36,025 324 400 0
2019-07-14 14:02:26 GMT 45.898453 5.554728 36,025 325 401 0
2019-07-14 14:02:23 GMT 45.894409 5.558876 36,025 326 401 0
2019-07-14 14:02:20 GMT 45.888588 5.564575 36,025 327 401 0
2019-07-14 14:02:16 GMT 45.882305 5.570274 36,000 335 405 0
2019-07-14 14:02:12 GMT 45.876114 5.575629 36,000 331 403 0
2019-07-14 14:02:09 GMT 45.871262 5.579581 36,000 335 404 0
2019-07-14 14:02:06 GMT 45.866150 5.583527 36,000 333 404 0
2019-07-14 14:02:03 GMT 45.861008 5.587352 36,000 335 405 0
2019-07-14 14:01:57 GMT 45.852417 5.593277 36,000 336 406 0
2019-07-14 14:01:54 GMT 45.846405 5.597132 36,000 336 406 0
2019-07-14 14:01:51 GMT 45.840034 5.601105 36,000 337 407 0
2019-07-14 14:01:48 GMT 45.834732 5.604434 36,000 337 407 0
2019-07-14 14:01:45 GMT 45.825439 5.610262 36,000 337 407 0
2019-07-14 14:01:39 GMT 45.821136 5.612915 36,000 337 407 0
2019-07-14 14:01:35 GMT 45.803211 5.624107 36,000 337 407 0
2019-07-14 14:01:29 GMT 45.803211 5.624107 36,000 337 407 0
2019-07-14 14:01:25 GMT 45.796322 5.628433 36,000 337 407 0
2019-07-14 14:01:22 GMT 45.791855 5.631248 36,000 337 406 0
2019-07-14 14:01:18 GMT 45.785290 5.635300 36,000 337 406 0
2019-07-14 14:01:13 GMT 45.775864 5.641279 36,000 337 406 0
2019-07-14 14:01:07 GMT 45.764877 5.648178 36,000 337 405 0
2019-07-14 14:01:04 GMT 45.758846 5.651985 36,000 337 405 0
2019-07-14 14:00:57 GMT 45.748398 5.658629 36,000 337 406 0
2019-07-14 14:00:54 GMT 45.743225 5.661844 36,000 337 406 0
2019-07-14 14:00:51 GMT 45.738274 5.665031 36,000 337 406 0
2019-07-14 14:00:48 GMT 45.732079 5.668945 36,000 337 406 0
2019-07-14 14:00:45 GMT 45.727612 5.671761 36,000 337 406 0
2019-07-14 14:00:41 GMT 45.720245 5.676448 36,000 337 406 0
2019-07-14 14:00:37 GMT 45.707359 5.684532 36,000 337 406 0
2019-07-14 14:00:34 GMT 45.700798 5.688721 36,000 337 406 0
2019-07-14 14:00:30 GMT 45.700798 5.688721 36,000 337 406 0
2019-07-14 14:00:27 GMT 45.697353 5.690849 36,000 337 407 -64
2019-07-14 14:00:24 GMT 45.691532 5.694557 36,000 337 407 0
2019-07-14 14:00:20 GMT 45.682922 5.699982 36,025 336 407 0
2019-07-14 14:00:16 GMT 45.677055 5.703690 36,000 336 407 0
2019-07-14 14:00:12 GMT 45.671238 5.707397 36,025 336 407 0
2019-07-14 14:00:09 GMT 45.663849 5.712154 36,025 336 407 0
2019-07-14 14:00:04 GMT 45.651810 5.719791 36,025 336 407 0
2019-07-14 14:00:01 GMT 45.651810 5.719791 36,025 336 407 0
2019-07-14 13:59:57 GMT 45.643723 5.724907 36,025 336 407 0
2019-07-14 13:59:53 GMT 45.637024 5.729169 36,025 336 407 0
2019-07-14 13:59:49 GMT 45.632217 5.732251 36,025 336 407 0
2019-07-14 13:59:45 GMT 45.623932 5.737543 36,025 336 407 0
2019-07-14 13:59:42 GMT 45.619286 5.740494 36,025 336 407 0
2019-07-14 13:59:38 GMT 45.610348 5.746193 36,025 336 408 0
2019-07-14 13:59:35 GMT 45.606720 5.748529 36,025 336 408 0
2019-07-14 13:59:31 GMT 45.601406 5.751892 36,025 336 410 0
2019-07-14 13:59:27 GMT 45.594521 5.756287 36,025 336 408 0
2019-07-14 13:59:24 GMT 45.584015 5.762999 36,025 336 410 0
2019-07-14 13:59:17 GMT 45.575199 5.768646 36,050 336 410 0
2019-07-14 13:59:14 GMT 45.570358 5.771736 36,050 336 410 0
2019-07-14 13:59:10 GMT 45.565189 5.775032 36,025 336 410 0
2019-07-14 13:59:07 GMT 45.560024 5.778328 36,025 336 410 0
2019-07-14 13:59:04 GMT 45.553085 5.782791 36,025 336 410 0
2019-07-14 13:59:00 GMT 45.547920 5.786087 36,025 336 410 0
2019-07-14 13:58:56 GMT 45.540985 5.790532 36,025 336 410 0
2019-07-14 13:58:53 GMT 45.533890 5.795092 36,025 336 411 0
2019-07-14 13:58:46 GMT 45.522316 5.802523 36,025 336 411 0
2019-07-14 13:58:43 GMT 45.516953 5.805947 36,025 336 411 0
2019-07-14 13:58:40 GMT 45.512634 5.808753 36,025 336 411 0
2019-07-14 13:58:33 GMT 45.500156 5.816725 36,025 336 411 64
2019-07-14 13:58:30 GMT 45.492847 5.821414 36,025 336 411 64
2019-07-14 13:58:27 GMT 45.489212 5.823735 36,025 336 411 64
2019-07-14 13:58:21 GMT 45.479507 5.830013 36,000 336 412 0
2019-07-14 13:58:18 GMT 45.472549 5.834460 36,000 336 412 0
2019-07-14 13:58:11 GMT 45.462479 5.840934 36,000 336 412 0
2019-07-14 13:58:08 GMT 45.455376 5.845530 36,000 336 412 0
2019-07-14 13:58:02 GMT 45.444077 5.852770 36,000 336 412 0
2019-07-14 13:57:59 GMT 45.439911 5.855451 36,000 336 412 0
2019-07-14 13:57:55 GMT 45.434326 5.859048 36,000 336 412 0
2019-07-14 13:57:51 GMT 45.425488 5.864757 36,000 336 413 0
2019-07-14 13:57:48 GMT 45.421463 5.867288 36,000 336 413 0
2019-07-14 13:57:45 GMT 45.415558 5.871081 36,000 336 413 0
2019-07-14 13:57:40 GMT 45.407055 5.876614 36,000 336 413 0
2019-07-14 13:57:37 GMT 45.400955 5.880498 36,000 336 413 0
2019-07-14 13:57:34 GMT 45.396423 5.883375 36,000 336 413 0
2019-07-14 13:57:30 GMT 45.390713 5.887064 36,000 336 413 0
2019-07-14 13:57:27 GMT 45.386196 5.890012 36,000 336 413 0
2019-07-14 13:57:23 GMT 45.378021 5.895211 36,000 336 413 0
2019-07-14 13:57:20 GMT 45.374542 5.897500 36,000 336 413 0
2019-07-14 13:57:17 GMT 45.366531 5.902601 36,000 336 413 0
2019-07-14 13:57:13 GMT 45.352074 5.911850 36,000 336 413 0
2019-07-14 13:57:08 GMT 45.347885 5.914530 36,000 336 413 0
2019-07-14 13:57:02 GMT 45.340073 5.919538 36,000 336 413 0
2019-07-14 13:56:59 GMT 45.336594 5.921762 36,000 336 413 0
2019-07-14 13:56:55 GMT 45.328751 5.926789 36,000 336 413 0
2019-07-14 13:56:50 GMT 45.321072 5.931746 36,000 336 413 0
2019-07-14 13:56:47 GMT 45.316040 5.934971 36,000 336 413 0
2019-07-14 13:56:44 GMT 45.311142 5.938045 36,000 336 414 0
2019-07-14 13:56:41 GMT 45.305923 5.941445 36,000 336 414 0
2019-07-14 13:56:38 GMT 45.299099 5.945747 36,000 336 413 0
2019-07-14 13:56:34 GMT 45.294022 5.948966 36,000 336 413 0
2019-07-14 13:56:29 GMT 45.276947 5.959952 36,000 336 413 0
2019-07-14 13:56:24 GMT 45.276947 5.959952 36,000 336 413 0
2019-07-14 13:56:21 GMT 45.271042 5.963745 36,000 336 413 0
2019-07-14 13:56:16 GMT 45.261612 5.969761 36,000 336 413 0
2019-07-14 13:56:13 GMT 45.256596 5.973012 36,000 336 413 0
2019-07-14 13:56:09 GMT 45.249615 5.977500 36,000 336 413 0
2019-07-14 13:56:06 GMT 45.243652 5.981319 36,000 336 414 0
2019-07-14 13:56:03 GMT 45.239319 5.984083 36,000 336 414 0
2019-07-14 13:55:59 GMT 45.232155 5.988688 36,000 336 414 0
2019-07-14 13:55:55 GMT 45.223404 5.994248 36,000 336 414 0
2019-07-14 13:55:52 GMT 45.220093 5.996377 36,000 336 414 -64
2019-07-14 13:55:49 GMT 45.214512 6.000009 36,000 336 415 -64
2019-07-14 13:55:45 GMT 45.207870 6.004225 36,000 336 415 0
2019-07-14 13:55:42 GMT 45.203106 6.007244 36,000 336 415 0
2019-07-14 13:55:39 GMT 45.196823 6.011263 36,000 336 415 0
2019-07-14 13:55:34 GMT 45.186859 6.017630 36,000 336 415 0
2019-07-14 13:55:27 GMT 45.177223 6.023790 36,000 336 416 0
2019-07-14 13:55:22 GMT 45.166580 6.030644 36,000 336 416 0
2019-07-14 13:55:16 GMT 45.157627 6.036384 36,000 336 416 0
2019-07-14 13:55:12 GMT 45.147850 6.042681 36,000 336 416 0
2019-07-14 13:55:08 GMT 45.143616 6.045361 36,000 336 416 0
2019-07-14 13:55:03 GMT 45.134537 6.051256 35,975 336 417 0
2019-07-14 13:54:59 GMT 45.126434 6.056481 35,975 336 417 0
2019-07-14 13:54:56 GMT 45.121719 6.059483 35,975 336 417 0
2019-07-14 13:54:53 GMT 45.116985 6.062510 35,975 336 417 64
2019-07-14 13:54:50 GMT 45.112244 6.065565 35,975 336 417 64
2019-07-14 13:54:47 GMT 45.104141 6.070731 35,975 336 418 0
2019-07-14 13:54:41 GMT 45.096405 6.075636 35,975 336 418 0
2019-07-14 13:54:38 GMT 45.090218 6.079593 35,975 336 418 0
2019-07-14 13:54:35 GMT 45.085285 6.082741 35,975 336 418 0
2019-07-14 13:54:31 GMT 45.077881 6.087431 35,950 336 418 0
2019-07-14 13:54:28 GMT 45.071365 6.091592 35,950 336 418 0
2019-07-14 13:54:25 GMT 45.066788 6.094469 35,950 336 418 0
2019-07-14 13:54:22 GMT 45.060791 6.098262 35,950 336 418 0
2019-07-14 13:54:19 GMT 45.057632 6.100289 35,950 336 418 0
2019-07-14 13:54:16 GMT 45.052322 6.103625 35,950 336 418 0
2019-07-14 13:54:12 GMT 45.043854 6.108987 35,950 336 418 0
2019-07-14 13:54:08 GMT 45.036961 6.113356 35,950 336 418 0
2019-07-14 13:54:03 GMT 45.020016 6.124074 35,950 336 418 0
2019-07-14 13:53:58 GMT 45.020016 6.124074 35,950 336 419 0
2019-07-14 13:53:55 GMT 45.014511 6.127494 35,950 336 418 0
2019-07-14 13:53:52 GMT 45.007828 6.131744 35,975 336 418 0
2019-07-14 13:53:48 GMT 45.002327 6.135194 35,975 335 418 0
2019-07-14 13:53:44 GMT 44.995789 6.139396 35,975 336 419 0
2019-07-14 13:53:40 GMT 44.988419 6.144169 35,975 335 418 0
2019-07-14 13:53:37 GMT 44.973652 6.154353 35,975 334 417 0
2019-07-14 13:53:32 GMT 44.973652 6.154353 35,975 333 417 0
2019-07-14 13:53:28 GMT 44.967506 6.158909 35,975 332 417 0
2019-07-14 13:53:25 GMT 44.962059 6.162995 35,975 331 417 0
2019-07-14 13:53:21 GMT 44.955681 6.168019 35,975 332 417 0
2019-07-14 13:53:18 GMT 44.949738 6.172616 35,975 331 418 -64
2019-07-14 13:53:12 GMT 44.940132 6.180145 35,975 331 418 -64
2019-07-14 13:53:09 GMT 44.935059 6.184097 35,975 331 418 -64
2019-07-14 13:53:06 GMT 44.930832 6.187395 36,000 331 419 -128
2019-07-14 13:53:03 GMT 44.918335 6.197205 36,000 331 418 -64
2019-07-14 13:52:59 GMT 44.918335 6.197205 36,000 331 419 -64
2019-07-14 13:52:55 GMT 44.911736 6.202318 36,000 331 419 -128
2019-07-14 13:52:50 GMT 44.902893 6.209218 36,025 331 419 -64
2019-07-14 13:52:46 GMT 44.895950 6.214665 36,025 331 419 -64
2019-07-14 13:52:43 GMT 44.891720 6.217994 36,025 331 419 -64
2019-07-14 13:52:39 GMT 44.884644 6.223554 36,025 331 420 -64
2019-07-14 13:52:34 GMT 44.876823 6.229717 36,050 331 420 0
2019-07-14 13:52:30 GMT 44.867699 6.236952 36,050 331 420 0
2019-07-14 13:52:27 GMT 44.858688 6.244027 36,050 331 420 0
2019-07-14 13:52:24 GMT 44.858688 6.244027 36,050 331 420 0
2019-07-14 13:52:21 GMT 44.853409 6.248206 36,050 331 421 0
2019-07-14 13:52:18 GMT 44.848160 6.252332 36,050 331 422 0
2019-07-14 13:52:15 GMT 44.842190 6.257049 36,050 331 422 0
2019-07-14 13:52:11 GMT 44.836945 6.261226 36,050 331 422 0
2019-07-14 13:52:08 GMT 44.832504 6.264692 36,075 331 423 0
2019-07-14 13:52:05 GMT 44.821751 6.273193 36,075 331 423 0
2019-07-14 13:52:02 GMT 44.821751 6.273193 36,075 331 423 0
2019-07-14 13:51:59 GMT 44.815796 6.277967 36,075 331 424 0
2019-07-14 13:51:55 GMT 44.809982 6.282545 36,075 331 425 0
2019-07-14 13:51:52 GMT 44.804489 6.286861 36,050 331 424 0
2019-07-14 13:51:48 GMT 44.796982 6.292877 36,050 331 425 0
2019-07-14 13:51:43 GMT 44.786839 6.300860 36,050 331 426 64
2019-07-14 13:51:36 GMT 44.777203 6.308430 36,050 331 427 0
2019-07-14 13:51:32 GMT 44.769611 6.314392 36,025 332 428 0
2019-07-14 13:51:28 GMT 44.761505 6.320735 36,025 332 428 0
2019-07-14 13:51:25 GMT 44.757835 6.323570 36,025 332 428 0
2019-07-14 13:51:20 GMT 44.749008 6.330414 36,025 332 428 0
2019-07-14 13:51:17 GMT 44.742241 6.335628 36,025 332 429 0
2019-07-14 13:51:14 GMT 44.738750 6.338307 36,025 332 429 0
2019-07-14 13:51:10 GMT 44.724976 6.348790 36,025 332 430 0
2019-07-14 13:51:06 GMT 44.724976 6.348790 36,025 332 430 0
2019-07-14 13:51:01 GMT 44.714680 6.356596 36,025 332 430 0
2019-07-14 13:50:55 GMT 44.706303 6.363027 36,025 332 430 0
2019-07-14 13:50:52 GMT 44.699646 6.368051 36,025 332 430 0
2019-07-14 13:50:48 GMT 44.693207 6.372986 36,025 332 430 0
2019-07-14 13:50:42 GMT 44.681862 6.381650 36,025 332 430 0
2019-07-14 13:50:39 GMT 44.677299 6.385066 36,025 332 430 0
2019-07-14 13:50:34 GMT 44.670090 6.390512 36,025 332 430 0
2019-07-14 13:50:30 GMT 44.661713 6.396855 36,025 332 430 0
2019-07-14 13:50:27 GMT 44.654861 6.402015 36,025 332 430 0
2019-07-14 13:50:24 GMT 44.652069 6.404158 36,050 332 430 0
2019-07-14 13:50:19 GMT 44.641754 6.412027 36,025 332 430 0
2019-07-14 13:50:10 GMT 44.626740 6.423536 36,025 332 430 0
2019-07-14 13:50:07 GMT 44.621521 6.427591 36,025 332 430 0
2019-07-14 13:50:04 GMT 44.617355 6.430795 36,025 332 430 0
2019-07-14 13:49:58 GMT 44.606354 6.439261 36,025 332 430 0
2019-07-14 13:49:55 GMT 44.599697 6.444352 36,025 332 430 0
2019-07-14 13:49:45 GMT 44.583801 6.456495 36,025 332 431 0
2019-07-14 13:49:42 GMT 44.578217 6.460811 36,025 332 431 0
2019-07-14 13:49:37 GMT 44.567532 6.468938 36,025 332 431 0
2019-07-14 13:49:33 GMT 44.561199 6.473761 36,025 332 431 0
2019-07-14 13:49:28 GMT 44.552628 6.480299 36,025 332 431 0
2019-07-14 13:49:23 GMT 44.544392 6.486623 36,025 332 431 0
2019-07-14 13:49:17 GMT 44.535095 6.493705 36,025 332 431 0
2019-07-14 13:49:13 GMT 44.526146 6.500490 36,025 332 431 0
2019-07-14 13:49:04 GMT 44.511612 6.511623 36,025 332 431 0
2019-07-14 13:49:01 GMT 44.506222 6.515763 36,025 332 432 0
2019-07-14 13:48:54 GMT 44.492065 6.526598 36,025 332 431 -64
2019-07-14 13:48:51 GMT 44.488541 6.529279 36,025 332 431 0
2019-07-14 13:48:43 GMT 44.473206 6.541116 36,050 332 431 0
2019-07-14 13:48:39 GMT 44.469166 6.544234 36,050 331 431 0
2019-07-14 13:48:32 GMT 44.454548 6.555555 36,050 331 431 0
2019-07-14 13:48:29 GMT 44.451427 6.558034 36,050 331 431 0
2019-07-14 13:48:22 GMT 44.438324 6.568124 36,050 331 431 0
2019-07-14 13:48:19 GMT 44.433105 6.572178 36,050 331 431 0
2019-07-14 13:48:12 GMT 44.420380 6.582016 36,025 331 431 0
2019-07-14 13:48:09 GMT 44.416718 6.584800 36,025 331 431 0
2019-07-14 13:48:01 GMT 44.402435 6.595851 36,025 331 431 0
2019-07-14 13:47:57 GMT 44.395477 6.601279 36,025 331 431 0
2019-07-14 13:47:51 GMT 44.383461 6.610554 36,025 331 431 64
2019-07-14 13:47:46 GMT 44.374756 6.617320 36,025 331 431 64
2019-07-14 13:47:39 GMT 44.361862 6.627301 36,000 331 431 64
2019-07-14 13:47:36 GMT 44.359070 6.629445 36,000 331 431 64
2019-07-14 13:47:28 GMT 44.342682 6.642106 36,000 331 431 64
2019-07-14 13:47:24 GMT 44.338165 6.645590 35,975 331 431 64
2019-07-14 13:47:20 GMT 44.329285 6.652418 35,975 332 430 0
2019-07-14 13:47:14 GMT 44.320541 6.659088 35,975 331 431 0
2019-07-14 13:47:07 GMT 44.308731 6.668309 35,975 331 430 64
2019-07-14 13:47:04 GMT 44.303345 6.672453 35,975 331 429 0
2019-07-14 13:46:57 GMT 44.290173 6.682702 35,950 331 429 0
2019-07-14 13:46:54 GMT 44.285004 6.686721 35,950 331 428 0
2019-07-14 13:46:48 GMT 44.273598 6.695564 35,950 331 428 0
2019-07-14 13:46:43 GMT 44.265965 6.701459 35,950 331 427 0
2019-07-14 13:46:37 GMT 44.255257 6.709766 35,950 331 427 0
2019-07-14 13:46:31 GMT 44.246109 6.716897 35,950 331 427 0
2019-07-14 13:46:25 GMT 44.235809 6.724875 35,975 331 426 -64
2019-07-14 13:46:22 GMT 44.230118 6.729327 35,975 331 426 -64
2019-07-14 13:46:16 GMT 44.218433 6.738371 35,975 331 425 0
2019-07-14 13:46:11 GMT 44.211411 6.743905 35,975 331 425 0
2019-07-14 13:46:04 GMT 44.199738 6.752995 35,975 331 424 0
2019-07-14 13:46:00 GMT 44.193436 6.757965 35,975 331 424 0
2019-07-14 13:45:56 GMT 44.185410 6.764321 35,975 331 425 0
2019-07-14 13:45:52 GMT 44.177052 6.770913 35,975 331 424 0
2019-07-14 13:45:49 GMT 44.173607 6.773594 35,975 331 424 0
2019-07-14 13:45:43 GMT 44.155869 6.787524 35,975 331 424 0
2019-07-14 13:45:34 GMT 44.147461 6.794086 35,975 331 424 -64
2019-07-14 13:45:29 GMT 44.139111 6.800668 36,000 331 424 -64
2019-07-14 13:45:24 GMT 44.130219 6.807665 36,000 331 424 0
2019-07-14 13:45:21 GMT 44.125095 6.811654 36,000 331 424 0
2019-07-14 13:45:17 GMT 44.118439 6.816889 36,000 331 424 0
2019-07-14 13:45:14 GMT 44.113953 6.820402 36,000 331 424 0
2019-07-14 13:45:11 GMT 44.106125 6.826534 36,000 331 424 0
2019-07-14 13:45:07 GMT 44.099625 6.831580 36,000 331 424 0
2019-07-14 13:45:00 GMT 44.090744 6.838542 36,000 331 424 0
2019-07-14 13:44:56 GMT 44.081989 6.845398 36,000 331 425 0
2019-07-14 13:44:53 GMT 44.077744 6.848698 36,025 331 425 0
2019-07-14 13:44:45 GMT 44.063881 6.859523 36,025 331 424 0
2019-07-14 13:44:39 GMT 44.052063 6.868755 36,025 331 424 0
2019-07-14 13:44:34 GMT 44.043350 6.875610 36,025 331 424 0
2019-07-14 13:44:31 GMT 44.039749 6.878400 36,025 331 424 0
2019-07-14 13:44:28 GMT 44.033936 6.882998 36,025 331 424 0
2019-07-14 13:44:25 GMT 44.030502 6.885681 36,025 331 424 0
2019-07-14 13:44:22 GMT 44.024174 6.890586 36,025 331 424 64
2019-07-14 13:44:15 GMT 44.012741 6.899542 36,025 331 425 64
2019-07-14 13:44:12 GMT 44.008255 6.903055 36,025 331 425 64
2019-07-14 13:44:05 GMT 43.993881 6.914297 36,000 331 427 64
2019-07-14 13:43:58 GMT 43.984043 6.921910 36,000 331 428 0
2019-07-14 13:43:53 GMT 43.974564 6.929307 36,000 331 428 0
2019-07-14 13:43:49 GMT 43.968540 6.934008 36,000 331 428 0
2019-07-14 13:43:43 GMT 43.957462 6.942640 36,000 331 428 0
2019-07-14 13:43:40 GMT 43.952293 6.946695 35,975 331 429 0
2019-07-14 13:43:32 GMT 43.939491 6.956635 36,000 331 428 0
2019-07-14 13:43:27 GMT 43.929977 6.964055 36,000 331 428 0
2019-07-14 13:43:23 GMT 43.923065 6.969420 36,000 331 428 0
2019-07-14 13:43:20 GMT 43.915833 6.975041 36,000 331 428 0
2019-07-14 13:43:11 GMT 43.903061 6.985005 36,000 331 428 0
2019-07-14 13:43:08 GMT 43.897842 6.989029 35,975 331 428 0
2019-07-14 13:43:02 GMT 43.886444 6.997908 35,975 331 430 0
2019-07-14 13:42:56 GMT 43.876740 7.005445 36,000 331 430 0
2019-07-14 13:42:52 GMT 43.870316 7.010454 36,000 331 430 -64
2019-07-14 13:42:49 GMT 43.864975 7.014643 36,000 331 430 -64
2019-07-14 13:42:46 GMT 43.858704 7.019497 36,000 331 430 -64
2019-07-14 13:42:42 GMT 43.851974 7.024711 36,000 331 430 -64
2019-07-14 13:42:39 GMT 43.847462 7.028242 36,000 331 431 0
2019-07-14 13:42:36 GMT 43.841221 7.033081 36,025 331 431 0
2019-07-14 13:42:29 GMT 43.829910 7.041853 36,025 331 431 -64
2019-07-14 13:42:25 GMT 43.822090 7.047926 36,025 331 431 -64
2019-07-14 13:42:19 GMT 43.812359 7.055446 36,025 331 431 0
2019-07-14 13:42:15 GMT 43.805050 7.061070 36,025 331 431 0
2019-07-14 13:42:11 GMT 43.798115 7.066498 36,025 331 432 0
2019-07-14 13:42:08 GMT 43.792526 7.070814 36,025 331 432 0
2019-07-14 13:42:04 GMT 43.786243 7.075653 36,025 331 433 0
2019-07-14 13:42:01 GMT 43.778561 7.081604 36,025 331 433 0
2019-07-14 13:41:57 GMT 43.774933 7.084393 36,025 331 433 0
2019-07-14 13:41:53 GMT 43.761292 7.094932 36,025 331 433 0
2019-07-14 13:41:50 GMT 43.761292 7.094932 36,025 331 433 0
2019-07-14 13:41:47 GMT 43.756027 7.099020 36,025 331 433 0
2019-07-14 13:41:42 GMT 43.748165 7.105081 36,050 331 433 0
2019-07-14 13:41:39 GMT 43.741879 7.109985 36,050 331 434 0
2019-07-14 13:41:35 GMT 43.736481 7.114158 36,050 331 434 0
2019-07-14 13:41:30 GMT 43.725445 7.122672 36,050 331 434 0
2019-07-14 13:41:26 GMT 43.720184 7.126726 36,050 331 435 0
2019-07-14 13:41:19 GMT 43.701565 7.141048 36,050 331 435 0
2019-07-14 13:41:16 GMT 43.701565 7.141048 36,050 331 436 0
2019-07-14 13:41:12 GMT 43.693314 7.147437 36,050 332 435 0
2019-07-14 13:41:08 GMT 43.688206 7.151315 36,050 332 435 64
2019-07-14 13:41:04 GMT 43.682007 7.155996 36,050 330 436 0
2019-07-14 13:41:00 GMT 43.673355 7.162563 36,050 332 437 64
2019-07-14 13:40:57 GMT 43.669071 7.165767 36,050 331 437 64
2019-07-14 13:40:53 GMT 43.661018 7.172045 36,025 330 436 0
2019-07-14 13:40:47 GMT 43.651615 7.179631 36,025 329 436 64
2019-07-14 13:40:43 GMT 43.644772 7.185451 36,025 328 436 64
2019-07-14 13:40:39 GMT 43.637238 7.192404 36,025 320 432 64
2019-07-14 13:40:36 GMT 43.633347 7.196300 36,025 324 434 0
2019-07-14 13:40:33 GMT 43.627499 7.202584 36,025 320 432 0
2019-07-14 13:40:28 GMT 43.620987 7.210353 36,025 317 432 0
2019-07-14 13:40:25 GMT 43.616638 7.215974 36,025 316 432 0
2019-07-14 13:40:22 GMT 43.611603 7.223064 36,000 311 430 0
2019-07-14 13:40:18 GMT 43.606461 7.231031 36,025 308 428 0
2019-07-14 13:40:12 GMT 43.598824 7.244306 36,025 306 428 0
2019-07-14 13:40:05 GMT 43.591415 7.259344 36,000 303 426 0
2019-07-14 13:40:00 GMT 43.586952 7.269876 36,000 299 425 0
2019-07-14 13:39:53 GMT 43.580761 7.286813 36,000 295 424 0
2019-07-14 13:39:50 GMT 43.578552 7.293964 36,000 293 424 0
2019-07-14 13:39:43 GMT 43.573837 7.311721 36,000 288 423 0
2019-07-14 13:39:40 GMT 43.570999 7.324048 36,000 288 422 0
2019-07-14 13:39:34 GMT 43.567822 7.338148 36,025 288 422 0
2019-07-14 13:39:29 GMT 43.565689 7.347682 36,000 288 422 0
2019-07-14 13:39:25 GMT 43.562840 7.360251 36,000 288 422 0
2019-07-14 13:39:18 GMT 43.559116 7.376665 36,000 288 423 0
2019-07-14 13:39:12 GMT 43.555710 7.391819 36,000 288 423 0
2019-07-14 13:39:09 GMT 43.553345 7.402366 36,000 288 422 0
2019-07-14 13:39:05 GMT 43.550858 7.413344 36,000 288 422 0
2019-07-14 13:39:01 GMT 43.549347 7.420051 36,000 288 422 0
2019-07-14 13:38:57 GMT 43.546921 7.430846 36,000 288 422 0
2019-07-14 13:38:52 GMT 43.543808 7.444643 36,000 288 422 0
2019-07-14 13:38:47 GMT 43.541241 7.456185 36,000 288 422 0
2019-07-14 13:38:41 GMT 43.537949 7.470831 36,000 288 421 0
2019-07-14 13:38:37 GMT 43.534817 7.484894 36,000 287 422 0
2019-07-14 13:38:29 GMT 43.530899 7.502576 36,000 287 422 0
2019-07-14 13:38:26 GMT 43.528904 7.511575 36,000 287 422 0
2019-07-14 13:38:21 GMT 43.525909 7.525188 36,000 287 422 0
2019-07-14 13:38:18 GMT 43.524342 7.532109 36,000 287 422 0
2019-07-14 13:38:13 GMT 43.521881 7.543072 36,000 287 421 0
2019-07-14 13:38:07 GMT 43.517498 7.562844 36,000 288 421 0
2019-07-14 13:38:04 GMT 43.516388 7.567664 36,000 288 421 0
2019-07-14 13:37:59 GMT 43.511902 7.587656 36,000 288 421 0
2019-07-14 13:37:56 GMT 43.510529 7.593788 36,000 288 421 0
2019-07-14 13:37:47 GMT 43.504761 7.619402 36,000 288 421 0
2019-07-14 13:37:44 GMT 43.504761 7.619402 36,000 288 421 0
2019-07-14 13:37:37 GMT 43.500923 7.636544 36,000 288 421 0
2019-07-14 13:37:33 GMT 43.498672 7.646548 36,025 288 421 0
2019-07-14 13:37:25 GMT 43.493408 7.670118 36,000 288 421 0
2019-07-14 13:37:22 GMT 43.492546 7.673950 36,000 288 421 0
2019-07-14 13:37:14 GMT 43.487274 7.697200 36,000 288 421 0
2019-07-14 13:37:11 GMT 43.486305 7.701547 36,000 288 421 0
2019-07-14 13:37:03 GMT 43.481232 7.724108 36,025 288 421 0
2019-07-14 13:36:54 GMT 43.476254 7.746081 36,025 288 421 0
2019-07-14 13:36:49 GMT 43.473541 7.758136 36,025 288 421 0
2019-07-14 13:36:44 GMT 43.470062 7.773658 36,025 288 421 0
2019-07-14 13:36:39 GMT 43.467361 7.785448 36,025 288 421 0
2019-07-14 13:36:32 GMT 43.463287 7.804189 36,025 288 421 0
2019-07-14 13:36:29 GMT 43.460796 7.814680 36,025 288 421 0
2019-07-14 13:36:21 GMT 43.456055 7.835424 36,025 288 421 0
2019-07-14 13:36:18 GMT 43.454746 7.841819 36,025 288 421 0
2019-07-14 13:36:11 GMT 43.450230 7.861699 36,025 288 421 0
2019-07-14 13:36:07 GMT 43.448456 7.869724 36,025 288 421 0
2019-07-14 13:35:58 GMT 43.443558 7.891250 36,025 288 421 0
2019-07-14 13:35:55 GMT 43.441479 7.900085 36,025 288 421 0
2019-07-14 13:35:51 GMT 43.436966 7.919673 36,025 288 421 0
2019-07-14 13:35:48 GMT 43.436966 7.919673 36,025 288 421 0
2019-07-14 13:35:45 GMT 43.435753 7.925655 36,025 288 421 0
2019-07-14 13:35:38 GMT 43.431610 7.943442 36,000 287 421 0
2019-07-14 13:35:35 GMT 43.429871 7.951483 36,000 288 421 0
2019-07-14 13:35:31 GMT 43.427261 7.963810 36,000 287 421 0
2019-07-14 13:35:25 GMT 43.424252 7.977774 36,000 287 421 0
2019-07-14 13:35:21 GMT 43.421925 7.987976 36,000 287 421 0
2019-07-14 13:35:14 GMT 43.418110 8.004979 36,000 287 421 0
2019-07-14 13:35:09 GMT 43.415176 8.017912 36,000 287 421 0
2019-07-14 13:35:04 GMT 43.411964 8.031791 36,000 287 421 0
2019-07-14 13:34:58 GMT 43.408951 8.046016 36,000 288 420 0
2019-07-14 13:34:53 GMT 43.406067 8.058727 36,000 288 420 0
2019-07-14 13:34:47 GMT 43.402283 8.075278 36,000 288 420 0
2019-07-14 13:34:44 GMT 43.401302 8.080052 36,000 288 420 0
2019-07-14 13:34:41 GMT 43.399704 8.087215 36,000 288 420 0
2019-07-14 13:34:33 GMT 43.394897 8.109188 36,000 288 420 0
2019-07-14 13:34:30 GMT 43.392700 8.118705 36,000 288 420 0
2019-07-14 13:34:26 GMT 43.390690 8.127856 36,000 288 420 0
2019-07-14 13:34:23 GMT 43.388992 8.135057 36,000 288 420 0
2019-07-14 13:34:19 GMT 43.386269 8.145905 36,000 288 420 0
2019-07-14 13:34:15 GMT 43.384460 8.155113 36,000 288 419 0
2019-07-14 13:34:12 GMT 43.382820 8.162188 36,000 287 419 0
2019-07-14 13:34:09 GMT 43.380543 8.172455 36,000 287 419 0
2019-07-14 13:34:02 GMT 43.376724 8.189850 36,000 287 419 0
2019-07-14 13:33:59 GMT 43.374756 8.198611 36,000 287 419 0
2019-07-14 13:33:50 GMT 43.370113 8.220455 36,025 287 419 0
2019-07-14 13:33:42 GMT 43.363598 8.248574 36,000 287 419 0
2019-07-14 13:33:38 GMT 43.363598 8.248574 36,000 287 419 0
2019-07-14 13:33:33 GMT 43.361115 8.260058 36,000 287 419 0
2019-07-14 13:33:28 GMT 43.357918 8.274013 36,000 287 419 -64
2019-07-14 13:33:25 GMT 43.356308 8.281903 36,000 287 419 0
2019-07-14 13:33:17 GMT 43.351181 8.304450 36,025 287 419 0
2019-07-14 13:33:13 GMT 43.349304 8.313010 36,025 287 419 0
2019-07-14 13:33:06 GMT 43.345642 8.329681 36,025 287 419 0
2019-07-14 13:33:02 GMT 43.342804 8.343350 36,025 287 418 0
2019-07-14 13:32:56 GMT 43.339993 8.355756 36,025 287 418 0
2019-07-14 13:32:48 GMT 43.334919 8.377860 36,025 287 418 0
2019-07-14 13:32:43 GMT 43.332684 8.387408 36,025 287 418 0
2019-07-14 13:32:39 GMT 43.330215 8.399878 36,025 287 418 0
2019-07-14 13:32:35 GMT 43.327938 8.410819 36,025 287 418 0
2019-07-14 13:32:26 GMT 43.323467 8.430830 36,025 287 418 0
2019-07-14 13:32:23 GMT 43.321793 8.438808 36,025 287 418 0
2019-07-14 13:32:17 GMT 43.318130 8.453979 36,000 287 418 0
2019-07-14 13:32:13 GMT 43.315750 8.464646 36,000 287 418 0
2019-07-14 13:32:09 GMT 43.313644 8.474419 36,000 287 418 0
2019-07-14 13:32:05 GMT 43.310200 8.491385 36,000 287 418 0
2019-07-14 13:32:02 GMT 43.310200 8.491385 36,000 287 418 0
2019-07-14 13:31:59 GMT 43.308151 8.500410 36,000 287 418 0
2019-07-14 13:31:53 GMT 43.304150 8.517412 36,000 287 418 0
2019-07-14 13:31:47 GMT 43.301540 8.530622 36,025 287 418 0
2019-07-14 13:31:42 GMT 43.298561 8.544355 36,025 287 418 0
2019-07-14 13:31:34 GMT 43.294418 8.563268 36,025 287 418 0
2019-07-14 13:31:29 GMT 43.291397 8.577001 36,000 287 418 0
2019-07-14 13:31:24 GMT 43.288696 8.589201 36,025 287 419 0
2019-07-14 13:31:20 GMT 43.286362 8.599740 36,025 287 419 0
2019-07-14 13:31:15 GMT 43.283569 8.611940 36,025 287 419 0
2019-07-14 13:31:12 GMT 43.280502 8.625673 36,000 287 419 0
2019-07-14 13:31:09 GMT 43.280502 8.625673 36,025 287 419 0
2019-07-14 13:31:05 GMT 43.277569 8.638720 36,000 287 419 0
2019-07-14 13:31:02 GMT 43.276886 8.643685 36,025 287 419 0
2019-07-14 13:30:59 GMT 43.274826 8.652755 36,000 287 419 0
2019-07-14 13:30:52 GMT 43.270706 8.671023 36,000 287 418 0
2019-07-14 13:30:49 GMT 43.268921 8.679199 36,000 288 419 0
2019-07-14 13:30:44 GMT 43.266312 8.690633 36,000 289 419 0
2019-07-14 13:30:38 GMT 43.262604 8.706346 36,000 290 418 0
2019-07-14 13:30:33 GMT 43.259079 8.719248 36,000 291 418 0
2019-07-14 13:30:28 GMT 43.255501 8.731842 36,000 292 418 0
2019-07-14 13:30:23 GMT 43.252716 8.741349 36,000 293 418 0
2019-07-14 13:30:20 GMT 43.249496 8.751264 36,000 293 418 0
2019-07-14 13:30:17 GMT 43.246994 8.759936 36,000 293 418 0
2019-07-14 13:30:12 GMT 43.244095 8.769575 36,000 293 417 0
2019-07-14 13:30:06 GMT 43.239254 8.785073 36,000 293 417 0
2019-07-14 13:30:03 GMT 43.237152 8.792065 36,000 292 418 0
2019-07-14 13:29:55 GMT 43.231014 8.811820 36,000 293 417 0
2019-07-14 13:29:52 GMT 43.229095 8.818317 36,000 292 418 0
2019-07-14 13:29:44 GMT 43.223007 8.838239 36,000 293 418 0
2019-07-14 13:29:41 GMT 43.220718 8.845527 36,000 293 418 0
2019-07-14 13:29:33 GMT 43.214813 8.864498 36,000 293 418 0
2019-07-14 13:29:23 GMT 43.207180 8.889117 36,000 293 418 0
2019-07-14 13:29:20 GMT 43.204990 8.896375 36,000 293 418 0
2019-07-14 13:29:13 GMT 43.200073 8.912723 36,025 293 417 0
2019-07-14 13:29:09 GMT 43.197281 8.921409 36,025 293 417 0
2019-07-14 13:29:02 GMT 43.191925 8.939614 36,025 292 417 0
2019-07-14 13:28:58 GMT 43.188721 8.950280 36,025 292 418 0
2019-07-14 13:28:49 GMT 43.182770 8.971487 36,025 292 418 0
2019-07-14 13:28:46 GMT 43.180756 8.977874 36,025 292 418 0
2019-07-14 13:28:42 GMT 43.177551 8.989627 36,025 292 418 0
2019-07-14 13:28:38 GMT 43.175293 8.997803 36,025 292 418 0
2019-07-14 13:28:34 GMT 43.172592 9.007743 36,000 292 418 0
2019-07-14 13:28:28 GMT 43.168030 9.023033 36,025 292 418 0
2019-07-14 13:28:24 GMT 43.164909 9.034293 36,025 292 418 0
2019-07-14 13:28:21 GMT 43.162678 9.041748 36,025 292 418 0
2019-07-14 13:28:17 GMT 43.160477 9.049860 36,025 292 418 0
2019-07-14 13:28:10 GMT 43.155167 9.068064 36,025 292 418 0
2019-07-14 13:28:07 GMT 43.153290 9.074963 36,025 292 418 0
2019-07-14 13:28:04 GMT 43.151222 9.082031 36,025 292 419 0
2019-07-14 13:27:59 GMT 43.147614 9.094189 36,025 292 419 0
2019-07-14 13:27:54 GMT 43.143215 9.110151 36,025 292 419 0
2019-07-14 13:27:51 GMT 43.142193 9.114140 36,000 292 419 0
2019-07-14 13:27:48 GMT 43.139099 9.124720 36,000 292 419 0
2019-07-14 13:27:43 GMT 43.135349 9.137748 36,000 292 419 0
2019-07-14 13:27:37 GMT 43.132050 9.149440 36,000 292 419 0
2019-07-14 13:27:34 GMT 43.130219 9.155827 36,000 292 419 0
2019-07-14 13:27:31 GMT 43.127884 9.164131 36,000 292 419 0
2019-07-14 13:27:28 GMT 43.125900 9.170903 36,000 292 419 0
2019-07-14 13:27:25 GMT 43.123386 9.179666 36,000 292 419 0
2019-07-14 13:27:21 GMT 43.118500 9.196865 36,000 292 418 0
2019-07-14 13:27:18 GMT 43.118500 9.196865 36,000 292 418 0
2019-07-14 13:27:15 GMT 43.116028 9.205585 36,000 292 418 0
2019-07-14 13:27:08 GMT 43.111839 9.220080 36,000 292 419 0
2019-07-14 13:27:05 GMT 43.108841 9.230687 36,000 292 418 0
2019-07-14 13:26:59 GMT 43.104218 9.246336 36,000 292 418 0
2019-07-14 13:26:56 GMT 43.103348 9.249977 36,000 292 418 0
2019-07-14 13:26:48 GMT 43.096897 9.272265 36,000 292 418 0
2019-07-14 13:26:45 GMT 43.095612 9.275910 36,000 292 418 0
2019-07-14 13:26:41 GMT 43.092773 9.286258 36,000 292 418 0
2019-07-14 13:26:35 GMT 43.088333 9.301758 36,000 292 419 0
2019-07-14 13:26:32 GMT 43.085312 9.312318 36,000 292 418 0
2019-07-14 13:26:28 GMT 43.082886 9.320558 36,000 292 418 0
2019-07-14 13:26:25 GMT 43.080746 9.328177 36,000 292 418 0
2019-07-14 13:26:21 GMT 43.078308 9.335824 36,000 292 418 0
2019-07-14 13:26:16 GMT 43.074875 9.348726 36,000 292 418 0
2019-07-14 13:26:12 GMT 43.071201 9.361332 36,000 292 418 0
2019-07-14 13:26:08 GMT 43.069431 9.367741 36,000 292 418 0
2019-07-14 13:26:04 GMT 43.066128 9.378989 36,000 292 418 0
2019-07-14 13:26:00 GMT 43.063473 9.388275 36,000 292 418 0
2019-07-14 13:25:57 GMT 43.061192 9.395665 36,000 292 418 0
2019-07-14 13:25:52 GMT 43.057842 9.408090 36,000 292 419 0
2019-07-14 13:25:48 GMT 43.054962 9.417583 36,025 292 419 0
2019-07-14 13:25:45 GMT 43.052536 9.426333 36,025 292 419 0
2019-07-14 13:25:39 GMT 43.048763 9.439022 36,025 292 419 0
2019-07-14 13:25:33 GMT 43.044666 9.453212 36,025 292 419 0
2019-07-14 13:25:29 GMT 43.041267 9.464525 36,025 292 419 0
2019-07-14 13:25:20 GMT 43.034592 9.487780 36,025 292 419 0
2019-07-14 13:25:09 GMT 43.026993 9.513841 36,025 292 419 0
2019-07-14 13:25:06 GMT 43.024509 9.523054 36,025 292 419 0
2019-07-14 13:25:00 GMT 43.020832 9.535348 36,025 292 419 0
2019-07-14 13:24:56 GMT 43.016922 9.548754 36,025 292 419 0
2019-07-14 13:24:52 GMT 43.015320 9.554720 36,025 292 420 0
2019-07-14 13:24:49 GMT 43.013103 9.561833 36,025 292 419 0
2019-07-14 13:24:46 GMT 43.009987 9.572165 36,025 292 419 0
2019-07-14 13:24:43 GMT 43.008591 9.577395 36,025 292 420 0
2019-07-14 13:24:37 GMT 43.004242 9.592597 36,025 292 420 0
2019-07-14 13:24:31 GMT 43.000256 9.606105 36,025 292 420 0
2019-07-14 13:24:27 GMT 42.997185 9.616438 36,025 292 420 0
2019-07-14 13:24:19 GMT 42.991222 9.636514 36,025 293 420 0
2019-07-14 13:24:16 GMT 42.981773 9.665615 36,025 295 420 0
2019-07-14 13:24:07 GMT 42.981773 9.665615 36,025 296 420 0
2019-07-14 13:24:04 GMT 42.979431 9.671929 36,025 297 420 0
2019-07-14 13:23:58 GMT 42.973766 9.687260 36,025 299 421 0
2019-07-14 13:23:49 GMT 42.965561 9.706868 36,025 300 420 0
2019-07-14 13:23:45 GMT 42.961292 9.716688 36,025 302 421 0
2019-07-14 13:23:41 GMT 42.957275 9.725455 36,025 304 421 0
2019-07-14 13:23:37 GMT 42.949768 9.741041 36,025 305 421 0
2019-07-14 13:23:28 GMT 42.942947 9.753943 36,025 307 422 0
2019-07-14 13:23:23 GMT 42.937866 9.763397 36,025 308 422 0
2019-07-14 13:23:19 GMT 42.931320 9.775149 36,000 310 422 0
2019-07-14 13:23:15 GMT 42.927494 9.781625 36,025 309 421 0
2019-07-14 13:23:12 GMT 42.924702 9.786595 36,000 310 422 0
2019-07-14 13:23:06 GMT 42.917221 9.798527 36,000 311 422 0
2019-07-14 13:23:02 GMT 42.911106 9.807979 36,000 312 422 0
2019-07-14 13:22:56 GMT 42.903305 9.819606 36,000 313 422 0
2019-07-14 13:22:53 GMT 42.897888 9.827401 36,000 314 422 0
2019-07-14 13:22:50 GMT 42.895340 9.831231 36,000 315 422 0
2019-07-14 13:22:45 GMT 42.888111 9.841134 36,000 315 422 0
2019-07-14 13:22:42 GMT 42.879181 9.853459 36,000 315 422 0
2019-07-14 13:22:31 GMT 42.869350 9.867227 36,000 315 421 0
2019-07-14 13:22:28 GMT 42.865265 9.872685 36,000 315 421 0
2019-07-14 13:22:23 GMT 42.858948 9.881372 36,025 315 421 0
2019-07-14 13:22:20 GMT 42.854687 9.887238 36,025 315 421 0
2019-07-14 13:22:17 GMT 42.848400 9.895935 36,000 315 421 0
2019-07-14 13:22:10 GMT 42.840591 9.906666 36,000 315 421 0
2019-07-14 13:22:04 GMT 42.831970 9.918496 36,000 315 421 0
2019-07-14 13:22:00 GMT 42.827179 9.925062 36,000 315 420 0
2019-07-14 13:21:54 GMT 42.818420 9.937265 36,000 315 420 0
2019-07-14 13:21:51 GMT 42.814041 9.943138 36,000 315 420 0
2019-07-14 13:21:47 GMT 42.804474 9.956297 36,000 315 420 0
2019-07-14 13:21:43 GMT 42.804474 9.956297 36,000 315 420 0
2019-07-14 13:21:39 GMT 42.799026 9.963788 36,000 315 420 0
2019-07-14 13:21:33 GMT 42.790054 9.976085 36,025 315 420 0
2019-07-14 13:21:29 GMT 42.784653 9.983701 36,000 315 420 0
2019-07-14 13:21:26 GMT 42.781265 9.988195 36,025 315 420 0
2019-07-14 13:21:21 GMT 42.773117 9.999494 36,025 315 420 0
2019-07-14 13:21:17 GMT 42.768494 10.005736 36,025 315 420 0
2019-07-14 13:21:14 GMT 42.758560 10.019344 36,025 315 420 0
2019-07-14 13:21:10 GMT 42.758560 10.019344 36,025 315 420 0
2019-07-14 13:21:07 GMT 42.755081 10.024151 36,025 315 420 0
2019-07-14 13:21:00 GMT 42.740524 10.044126 36,025 315 420 0
2019-07-14 13:20:57 GMT 42.740524 10.044126 36,025 315 420 0
2019-07-14 13:20:50 GMT 42.731232 10.056797 36,025 315 420 0
2019-07-14 13:20:46 GMT 42.716473 10.077209 36,025 315 420 0
2019-07-14 13:20:40 GMT 42.716473 10.077209 36,025 315 420 0
2019-07-14 13:20:36 GMT 42.711723 10.083405 36,025 315 420 0
2019-07-14 13:20:31 GMT 42.700378 10.099182 36,000 315 420 0
2019-07-14 13:20:23 GMT 42.693008 10.109170 36,000 315 420 0
2019-07-14 13:20:19 GMT 42.689335 10.114193 36,000 315 420 0
2019-07-14 13:20:15 GMT 42.682213 10.123965 36,000 315 420 0
2019-07-14 13:20:10 GMT 42.676712 10.131642 36,000 315 420 0
2019-07-14 13:20:07 GMT 42.669594 10.141147 36,000 315 420 0
2019-07-14 13:20:04 GMT 42.667408 10.144086 36,000 315 420 0
2019-07-14 13:19:58 GMT 42.660141 10.153927 36,000 315 420 0
2019-07-14 13:19:53 GMT 42.652649 10.164397 36,000 315 420 0
2019-07-14 13:19:48 GMT 42.644970 10.174745 36,000 315 420 0
2019-07-14 13:19:44 GMT 42.641785 10.179145 36,000 315 420 0
2019-07-14 13:19:41 GMT 42.636730 10.185987 36,000 315 420 0
2019-07-14 13:19:32 GMT 42.624996 10.201955 36,000 315 420 0
2019-07-14 13:19:29 GMT 42.619354 10.209482 36,000 315 420 0
2019-07-14 13:19:24 GMT 42.613174 10.218179 36,000 315 420 0
2019-07-14 13:19:17 GMT 42.604294 10.230144 36,000 315 420 0
2019-07-14 13:19:13 GMT 42.599022 10.237342 36,000 315 420 0
2019-07-14 13:19:07 GMT 42.589554 10.250244 36,000 315 420 0
2019-07-14 13:19:03 GMT 42.585011 10.256440 36,000 315 420 0
2019-07-14 13:19:00 GMT 42.581085 10.261792 36,000 315 420 0
2019-07-14 13:18:53 GMT 42.570923 10.275525 36,000 315 420 0
2019-07-14 13:18:50 GMT 42.566948 10.281031 36,000 315 420 0
2019-07-14 13:18:44 GMT 42.558147 10.292848 36,000 315 420 0
2019-07-14 13:18:40 GMT 42.552143 10.301024 36,025 315 420 0
2019-07-14 13:18:31 GMT 42.541485 10.315651 36,025 315 420 0
2019-07-14 13:18:28 GMT 42.537506 10.320969 36,025 315 420 0
2019-07-14 13:18:25 GMT 42.533241 10.326893 36,025 315 420 0
2019-07-14 13:18:19 GMT 42.524048 10.339258 36,025 315 420 0
2019-07-14 13:18:11 GMT 42.513786 10.353273 36,025 315 422 0
2019-07-14 13:18:08 GMT 42.509129 10.359533 36,025 315 420 0
2019-07-14 13:17:59 GMT 42.496353 10.376961 36,025 315 420 0
2019-07-14 13:17:55 GMT 42.492233 10.382392 36,025 315 420 0
2019-07-14 13:17:50 GMT 42.484543 10.392754 36,025 315 421 0
2019-07-14 13:17:47 GMT 42.480972 10.397686 36,025 315 421 0
2019-07-14 13:17:38 GMT 42.467327 10.415933 36,025 315 421 0
2019-07-14 13:17:30 GMT 42.456852 10.430177 36,025 315 421 0
2019-07-14 13:17:26 GMT 42.451263 10.437574 36,025 315 421 0
2019-07-14 13:17:21 GMT 42.444748 10.446401 36,025 315 421 0
2019-07-14 13:17:18 GMT 42.436295 10.457798 36,025 315 421 0
2019-07-14 13:17:09 GMT 42.427059 10.470290 36,025 316 422 0
2019-07-14 13:17:05 GMT 42.422356 10.476741 36,025 316 422 0
2019-07-14 13:16:58 GMT 42.411926 10.490985 36,025 315 422 0
2019-07-14 13:16:54 GMT 42.407181 10.496937 36,000 315 422 0
2019-07-14 13:16:47 GMT 42.397614 10.510046 36,000 315 422 0
2019-07-14 13:16:43 GMT 42.393127 10.516226 36,000 315 422 0
2019-07-14 13:16:38 GMT 42.385483 10.526463 36,025 315 422 0
2019-07-14 13:16:35 GMT 42.380970 10.532503 36,000 316 422 0
2019-07-14 13:16:32 GMT 42.376827 10.537997 36,000 316 422 0
2019-07-14 13:16:27 GMT 42.370544 10.546556 36,000 316 422 0
2019-07-14 13:16:23 GMT 42.363605 10.555753 36,000 316 422 0
2019-07-14 13:16:15 GMT 42.352524 10.570658 36,000 315 422 0
2019-07-14 13:16:11 GMT 42.348953 10.575714 36,000 315 422 0
2019-07-14 13:16:04 GMT 42.337303 10.591331 36,000 315 422 0
2019-07-14 13:16:00 GMT 42.333023 10.597000 36,000 315 422 0
2019-07-14 13:15:53 GMT 42.319012 10.615923 36,000 316 422 0
2019-07-14 13:15:50 GMT 42.319012 10.615923 36,000 316 422 0
2019-07-14 13:15:46 GMT 42.311840 10.625568 36,000 316 422 0
2019-07-14 13:15:42 GMT 42.308853 10.629585 36,000 316 422 0
2019-07-14 13:15:39 GMT 42.303696 10.636426 36,000 316 422 0
2019-07-14 13:15:36 GMT 42.297821 10.644254 36,000 316 422 0
2019-07-14 13:15:33 GMT 42.294384 10.648946 36,000 316 422 0
2019-07-14 13:15:26 GMT 42.285965 10.660359 36,000 316 422 0
2019-07-14 13:15:22 GMT 42.280380 10.667787 36,000 316 422 0
2019-07-14 13:15:19 GMT 42.275940 10.673592 36,000 316 422 0
2019-07-14 13:15:16 GMT 42.272083 10.678903 36,000 316 422 0
2019-07-14 13:15:11 GMT 42.260971 10.694004 36,000 316 422 0
2019-07-14 13:15:05 GMT 42.256397 10.699725 36,000 316 422 0
2019-07-14 13:15:01 GMT 42.251083 10.706926 36,000 315 421 0
2019-07-14 13:14:56 GMT 42.244400 10.715915 36,000 316 420 0
2019-07-14 13:14:53 GMT 42.239456 10.722656 36,000 316 421 0
2019-07-14 13:14:49 GMT 42.235542 10.727830 36,000 316 421 0
2019-07-14 13:14:46 GMT 42.230759 10.734267 36,000 316 421 0
2019-07-14 13:14:42 GMT 42.224415 10.742777 36,000 316 421 0
2019-07-14 13:14:36 GMT 42.216934 10.752806 36,000 316 421 0
2019-07-14 13:14:30 GMT 42.206772 10.766282 36,000 316 421 0
2019-07-14 13:14:25 GMT 42.202816 10.771584 36,000 316 421 0
2019-07-14 13:14:18 GMT 42.191895 10.786077 36,000 316 422 0
2019-07-14 13:14:14 GMT 42.186756 10.793045 36,000 316 422 0
2019-07-14 13:14:08 GMT 42.178051 10.804607 36,000 316 422 0
2019-07-14 13:14:02 GMT 42.170654 10.814479 36,000 316 422 0
2019-07-14 13:13:59 GMT 42.166225 10.820256 36,000 316 422 0
2019-07-14 13:13:56 GMT 42.161316 10.826839 36,000 316 422 0
2019-07-14 13:13:53 GMT 42.157192 10.832392 36,000 316 422 0
2019-07-14 13:13:47 GMT 42.149231 10.842819 36,000 316 422 0
2019-07-14 13:13:43 GMT 42.143929 10.849957 36,000 316 422 0
2019-07-14 13:13:39 GMT 42.134674 10.862233 36,000 316 422 0
2019-07-14 13:13:32 GMT 42.129044 10.869786 36,000 316 422 0
2019-07-14 13:13:27 GMT 42.120895 10.880522 36,000 316 422 0
2019-07-14 13:13:22 GMT 42.114227 10.889495 36,000 316 422 0
2019-07-14 13:13:16 GMT 42.106174 10.899907 36,000 316 422 0
2019-07-14 13:13:11 GMT 42.099243 10.909237 36,000 316 422 0
2019-07-14 13:13:05 GMT 42.091370 10.919848 36,025 316 422 0
2019-07-14 13:12:59 GMT 42.082855 10.930835 36,025 316 422 0
2019-07-14 13:12:55 GMT 42.076332 10.939700 36,025 316 422 0
2019-07-14 13:12:50 GMT 42.069626 10.948563 36,025 316 422 0
2019-07-14 13:12:46 GMT 42.064743 10.955158 36,025 316 422 0
2019-07-14 13:12:42 GMT 42.058868 10.962982 36,025 316 422 0
2019-07-14 13:12:39 GMT 42.054359 10.968891 36,000 316 423 0
2019-07-14 13:12:36 GMT 42.050171 10.974405 36,025 316 423 0
2019-07-14 13:12:33 GMT 42.046680 10.979046 36,025 316 423 0
2019-07-14 13:12:29 GMT 42.041233 10.986392 36,025 316 423 0
2019-07-14 13:12:26 GMT 42.035660 10.993632 36,025 316 424 0
2019-07-14 13:12:23 GMT 42.032593 10.997689 36,025 316 424 0
2019-07-14 13:12:17 GMT 42.024811 11.008114 36,025 316 424 0
2019-07-14 13:12:13 GMT 42.018677 11.016104 36,025 316 423 0
2019-07-14 13:12:07 GMT 42.010391 11.027152 36,025 316 424 0
2019-07-14 13:12:03 GMT 42.004852 11.034268 36,025 316 423 0
2019-07-14 13:11:59 GMT 41.998451 11.042920 36,025 316 423 0
2019-07-14 13:11:56 GMT 41.994965 11.047502 36,025 316 423 0
2019-07-14 13:11:52 GMT 41.988861 11.055568 36,025 316 424 0
2019-07-14 13:11:46 GMT 41.981140 11.065854 36,025 316 424 0
2019-07-14 13:11:43 GMT 41.975826 11.072814 36,025 316 424 0
2019-07-14 13:11:37 GMT 41.968414 11.082521 36,025 316 424 0
2019-07-14 13:11:34 GMT 41.964432 11.087952 36,025 316 424 0
2019-07-14 13:11:31 GMT 41.960510 11.092998 36,025 316 424 0
2019-07-14 13:11:28 GMT 41.955276 11.099937 36,025 316 424 0
2019-07-14 13:11:24 GMT 41.950150 11.106678 36,025 316 424 0
2019-07-14 13:11:21 GMT 41.945847 11.112415 36,025 316 424 0
2019-07-14 13:11:17 GMT 41.940632 11.119314 36,025 316 424 0
2019-07-14 13:11:14 GMT 41.935730 11.125780 36,025 316 425 0
2019-07-14 13:11:11 GMT 41.931702 11.130961 36,025 316 424 0
2019-07-14 13:11:05 GMT 41.917282 11.150124 36,025 316 424 0
2019-07-14 13:11:01 GMT 41.917282 11.150124 36,025 316 424 0
2019-07-14 13:10:56 GMT 41.902832 11.169199 36,025 316 424 0
2019-07-14 13:10:50 GMT 41.902832 11.169199 36,025 316 424 0
2019-07-14 13:10:46 GMT 41.896545 11.177465 36,025 316 424 0
2019-07-14 13:10:40 GMT 41.887985 11.188576 36,025 316 424 0
2019-07-14 13:10:33 GMT 41.878441 11.201264 36,025 316 424 0
2019-07-14 13:10:29 GMT 41.873135 11.208163 36,025 316 424 0
2019-07-14 13:10:19 GMT 41.859119 11.226686 36,025 316 423 0
2019-07-14 13:10:14 GMT 41.843525 11.247126 36,025 316 423 0
2019-07-14 13:10:09 GMT 41.843525 11.247126 36,025 316 423 0
2019-07-14 13:10:04 GMT 41.832912 11.261114 36,025 316 423 0
2019-07-14 13:10:00 GMT 41.832912 11.261114 36,025 316 423 0
2019-07-14 13:09:57 GMT 41.828293 11.267166 36,025 316 423 0
2019-07-14 13:09:53 GMT 41.823532 11.273408 36,025 316 422 0
2019-07-14 13:09:49 GMT 41.816944 11.282065 36,025 316 422 0
2019-07-14 13:09:46 GMT 41.812500 11.287766 36,025 316 422 0
2019-07-14 13:09:43 GMT 41.809170 11.292221 36,025 316 422 0
2019-07-14 13:09:37 GMT 41.800884 11.303143 36,025 316 422 0
2019-07-14 13:09:33 GMT 41.794556 11.311424 36,000 316 422 0
2019-07-14 13:09:30 GMT 41.785381 11.323391 36,000 316 422 0
2019-07-14 13:09:26 GMT 41.785381 11.323391 36,000 316 422 0
2019-07-14 13:09:23 GMT 41.780594 11.329713 36,000 316 422 0
2019-07-14 13:09:16 GMT 41.770844 11.342510 36,000 316 422 0
2019-07-14 13:09:10 GMT 41.762386 11.353668 36,000 316 422 0
2019-07-14 13:09:05 GMT 41.756653 11.361174 36,000 316 422 0
2019-07-14 13:08:59 GMT 41.747177 11.373534 36,000 316 422 0
2019-07-14 13:08:56 GMT 41.742599 11.379600 36,000 316 421 0
2019-07-14 13:08:50 GMT 41.734825 11.389756 36,000 316 421 0
2019-07-14 13:08:45 GMT 41.727798 11.398954 36,000 316 421 0
2019-07-14 13:08:39 GMT 41.718952 11.410515 36,000 316 421 0
2019-07-14 13:08:34 GMT 41.711975 11.419601 36,000 316 421 0
2019-07-14 13:08:28 GMT 41.703636 11.430508 36,000 316 420 0
2019-07-14 13:08:24 GMT 41.698059 11.437766 36,000 316 420 0
2019-07-14 13:08:17 GMT 41.688309 11.450500 36,000 316 420 0
2019-07-14 13:08:14 GMT 41.684132 11.455930 36,000 316 421 0
2019-07-14 13:08:09 GMT 41.677193 11.465000 36,000 316 420 0
2019-07-14 13:08:03 GMT 41.668854 11.475906 36,000 316 420 0
2019-07-14 13:07:55 GMT 41.657738 11.490358 36,000 316 420 0
2019-07-14 13:07:47 GMT 41.648006 11.503069 36,000 316 420 0
2019-07-14 13:07:42 GMT 41.639626 11.513927 36,000 316 420 0
2019-07-14 13:07:38 GMT 41.634064 11.521163 36,000 316 420 0
2019-07-14 13:07:32 GMT 41.625732 11.531962 36,000 316 420 0
2019-07-14 13:07:28 GMT 41.620193 11.539203 36,000 316 420 0
2019-07-14 13:07:21 GMT 41.610443 11.551874 36,000 316 420 0
2019-07-14 13:07:17 GMT 41.606297 11.557298 36,000 316 419 0
2019-07-14 13:07:11 GMT 41.596573 11.569914 35,975 316 420 0
2019-07-14 13:07:05 GMT 41.586838 11.582592 35,975 316 420 0
2019-07-14 13:07:00 GMT 41.581249 11.589810 35,975 316 420 0
2019-07-14 13:06:49 GMT 41.567368 11.607867 36,000 316 420 0
2019-07-14 13:06:39 GMT 41.552078 11.627655 36,000 316 420 0
2019-07-14 13:06:33 GMT 41.542328 11.640264 36,000 316 420 0
2019-07-14 13:06:27 GMT 41.536743 11.647505 36,000 316 420 0
2019-07-14 13:06:23 GMT 41.528412 11.658304 36,000 316 420 0
2019-07-14 13:06:18 GMT 41.522873 11.665545 36,000 316 420 0
2019-07-14 13:06:15 GMT 41.518684 11.670930 36,000 316 420 0
2019-07-14 13:06:11 GMT 41.514496 11.676344 36,000 316 420 0
2019-07-14 13:06:08 GMT 41.508957 11.683523 36,000 316 420 0
2019-07-14 13:06:05 GMT 41.504765 11.688942 36,000 316 420 0
2019-07-14 13:06:02 GMT 41.500580 11.694384 36,000 316 420 0
2019-07-14 13:05:58 GMT 41.494995 11.701563 36,000 316 420 0
2019-07-14 13:05:55 GMT 41.490845 11.706955 36,000 316 420 0
2019-07-14 13:05:50 GMT 41.483864 11.715961 36,000 316 420 0
2019-07-14 13:05:47 GMT 41.475529 11.726756 36,000 316 420 0
2019-07-14 13:05:40 GMT 41.469944 11.733973 36,000 316 420 0
2019-07-14 13:05:37 GMT 41.465755 11.739339 36,000 316 420 0
2019-07-14 13:05:34 GMT 41.461578 11.744759 36,000 316 420 0
2019-07-14 13:05:29 GMT 41.454575 11.753748 36,000 316 420 0
2019-07-14 13:05:26 GMT 41.446198 11.764547 36,000 316 420 0
2019-07-14 13:05:23 GMT 41.440613 11.771788 36,000 316 421 0
2019-07-14 13:05:19 GMT 41.440613 11.771788 36,000 316 421 0
2019-07-14 13:05:13 GMT 41.432190 11.782587 36,000 316 421 0
2019-07-14 13:05:10 GMT 41.428001 11.788011 36,000 316 421 0
2019-07-14 13:05:05 GMT 41.421021 11.797007 36,000 316 421 0
2019-07-14 13:05:01 GMT 41.413986 11.806023 36,000 316 421 0
2019-07-14 13:04:53 GMT 41.404163 11.818606 36,000 316 422 0
2019-07-14 13:04:50 GMT 41.398544 11.825846 36,000 316 422 0
2019-07-14 13:04:47 GMT 41.395752 11.829466 36,000 316 422 0
2019-07-14 13:04:43 GMT 41.390167 11.836645 36,000 316 422 0
2019-07-14 13:04:39 GMT 41.384537 11.843872 36,000 316 422 0
2019-07-14 13:04:33 GMT 41.371906 11.860116 36,000 316 422 0
2019-07-14 13:04:30 GMT 41.369110 11.863708 36,000 316 422 0
2019-07-14 13:04:27 GMT 41.363480 11.870977 36,000 316 422 0
2019-07-14 13:04:23 GMT 41.363480 11.870977 36,000 316 422 0
2019-07-14 13:04:20 GMT 41.356449 11.879966 36,000 316 422 0
2019-07-14 13:04:16 GMT 41.350845 11.887207 36,000 316 422 0
2019-07-14 13:04:12 GMT 41.346626 11.892638 36,000 316 422 0
2019-07-14 13:04:09 GMT 41.342438 11.898006 36,000 316 422 0
2019-07-14 13:04:05 GMT 41.335419 11.907043 36,000 316 422 0
2019-07-14 13:04:01 GMT 41.331219 11.912426 36,000 316 422 0
2019-07-14 13:03:58 GMT 41.327026 11.917856 36,000 316 422 0
2019-07-14 13:03:50 GMT 41.317200 11.930481 36,000 316 422 0
2019-07-14 13:03:46 GMT 41.310196 11.939453 36,000 316 421 0
2019-07-14 13:03:41 GMT 41.303146 11.948443 36,000 316 421 0
2019-07-14 13:03:36 GMT 41.293350 11.960999 36,000 316 421 0
2019-07-14 13:03:29 GMT 41.282135 11.975342 36,025 316 421 0
2019-07-14 13:03:26 GMT 41.282135 11.975342 36,025 317 420 0
2019-07-14 13:03:21 GMT 41.270981 11.989704 36,000 317 420 0
2019-07-14 13:03:18 GMT 41.270981 11.989704 36,025 317 420 0
2019-07-14 13:03:15 GMT 41.265381 11.996826 36,025 317 420 0
2019-07-14 13:03:11 GMT 41.261169 12.002197 36,025 317 420 0
2019-07-14 13:03:08 GMT 41.256966 12.007557 36,025 317 419 0
2019-07-14 13:03:04 GMT 41.251373 12.014709 36,025 317 419 0
2019-07-14 13:02:57 GMT 41.241623 12.027161 36,025 317 419 0
2019-07-14 13:02:53 GMT 41.236019 12.034336 36,025 317 419 0
2019-07-14 13:02:50 GMT 41.231827 12.039673 36,025 317 419 0
2019-07-14 13:02:47 GMT 41.227615 12.045044 36,025 317 420 64
2019-07-14 13:02:44 GMT 41.223450 12.050379 36,000 317 420 64
2019-07-14 13:02:40 GMT 41.217861 12.057495 36,000 317 420 128
2019-07-14 13:02:37 GMT 41.210835 12.066484 36,000 317 420 192
2019-07-14 13:02:34 GMT 41.208023 12.070007 35,975 317 420 192
2019-07-14 13:02:29 GMT 41.202408 12.077221 35,975 317 422 256
2019-07-14 13:02:26 GMT 41.198227 12.082581 35,950 317 422 384
2019-07-14 13:02:23 GMT 41.193970 12.087952 35,925 317 422 576
2019-07-14 13:02:20 GMT 41.189758 12.093323 35,925 317 422 704
2019-07-14 13:02:16 GMT 41.184174 12.100525 35,850 317 422 768
2019-07-14 13:02:13 GMT 41.179924 12.105935 35,825 317 422 768
2019-07-14 13:02:09 GMT 41.175705 12.111267 35,750 317 422 768
2019-07-14 13:02:06 GMT 41.164444 12.125610 35,700 317 422 896
2019-07-14 13:02:02 GMT 41.160233 12.130966 35,625 317 422 960
2019-07-14 13:01:53 GMT 41.151764 12.141724 35,500 317 422 1024
2019-07-14 13:01:49 GMT 41.146133 12.148926 35,425 317 422 1024
2019-07-14 13:01:45 GMT 41.140495 12.156060 35,375 317 422 1088
2019-07-14 13:01:42 GMT 41.134827 12.163269 35,325 317 424 1088
2019-07-14 13:01:38 GMT 41.130615 12.168640 35,250 317 424 1088
2019-07-14 13:01:34 GMT 41.124947 12.175848 35,200 317 424 1088
2019-07-14 13:01:31 GMT 41.120708 12.181216 35,125 317 424 1088
2019-07-14 13:01:27 GMT 41.115051 12.188477 35,050 317 425 1024
2019-07-14 13:01:23 GMT 41.110794 12.193888 35,000 317 425 1024
2019-07-14 13:01:20 GMT 41.100830 12.206497 34,925 317 425 832
2019-07-14 13:01:16 GMT 41.100830 12.206497 34,875 317 425 832
2019-07-14 13:01:13 GMT 41.095184 12.213684 34,825 317 425 768
2019-07-14 13:01:08 GMT 41.088089 12.222717 34,775 317 425 704
2019-07-14 13:01:05 GMT 41.083839 12.228095 34,700 317 425 640
2019-07-14 13:01:02 GMT 41.079556 12.233526 34,700 317 425 640
2019-07-14 13:00:59 GMT 41.075321 12.238894 34,650 317 424 640
2019-07-14 13:00:55 GMT 41.069641 12.246073 34,600 317 424 768
2019-07-14 13:00:52 GMT 41.065430 12.251465 34,600 317 424 768
2019-07-14 13:00:48 GMT 41.059727 12.258682 34,525 317 423 832
2019-07-14 13:00:44 GMT 41.054092 12.265798 34,450 317 423 832
2019-07-14 13:00:41 GMT 41.049854 12.271167 34,425 317 423 832
2019-07-14 13:00:37 GMT 41.044189 12.278320 34,400 317 423 832
2019-07-14 13:00:33 GMT 41.038513 12.285522 34,300 317 423 832
2019-07-14 13:00:30 GMT 41.035721 12.289062 34,275 317 423 832
2019-07-14 13:00:27 GMT 41.030071 12.296198 34,225 317 422 832
2019-07-14 13:00:24 GMT 41.025833 12.301575 34,200 317 422 768
2019-07-14 13:00:20 GMT 41.020157 12.308716 34,150 317 422 832
2019-07-14 13:00:17 GMT 41.015945 12.314087 34,100 317 422 832
2019-07-14 13:00:14 GMT 41.011730 12.319419 34,050 317 422 512
2019-07-14 13:00:10 GMT 41.006050 12.326535 34,025 317 422 0
2019-07-14 13:00:07 GMT 41.001816 12.331904 34,000 317 422 0
2019-07-14 13:00:04 GMT 40.996181 12.339020 34,000 317 422 0
2019-07-14 12:59:59 GMT 40.991943 12.344388 34,000 317 422 0
2019-07-14 12:59:56 GMT 40.986282 12.351501 34,000 317 422 0
2019-07-14 12:59:53 GMT 40.977795 12.362178 34,000 317 422 0
2019-07-14 12:59:50 GMT 40.972137 12.369263 34,000 317 422 0
2019-07-14 12:59:46 GMT 40.972137 12.369263 34,000 317 422 0
2019-07-14 12:59:39 GMT 40.962246 12.381717 34,000 317 423 0
2019-07-14 12:59:36 GMT 40.956566 12.388770 34,000 317 423 0
2019-07-14 12:59:31 GMT 40.950794 12.395762 34,000 318 422 0
2019-07-14 12:59:28 GMT 40.946411 12.400879 34,000 319 422 0
2019-07-14 12:59:24 GMT 40.941971 12.405945 34,000 320 423 0
2019-07-14 12:59:18 GMT 40.931522 12.417609 34,025 321 423 0
2019-07-14 12:59:14 GMT 40.925491 12.424255 34,025 321 423 0
2019-07-14 12:59:07 GMT 40.916485 12.434151 34,025 321 423 0
2019-07-14 12:59:04 GMT 40.910477 12.440796 34,025 321 423 0
2019-07-14 12:58:57 GMT 40.899994 12.452332 34,025 321 423 0
2019-07-14 12:58:53 GMT 40.893951 12.458995 34,000 321 423 0
2019-07-14 12:58:46 GMT 40.883430 12.470544 34,000 321 424 0
2019-07-14 12:58:43 GMT 40.878937 12.475525 34,000 321 424 0
2019-07-14 12:58:33 GMT 40.863831 12.492065 34,000 321 424 0
2019-07-14 12:58:24 GMT 40.845703 12.511963 34,025 321 425 0
2019-07-14 12:58:14 GMT 40.836647 12.521917 34,025 321 425 0
2019-07-14 12:58:11 GMT 40.832108 12.526855 34,025 321 425 0
2019-07-14 12:58:03 GMT 40.818558 12.541809 34,025 321 425 0
2019-07-14 12:58:00 GMT 40.814026 12.546753 34,025 321 425 0
2019-07-14 12:57:57 GMT 40.807983 12.553345 34,025 321 425 0
2019-07-14 12:57:53 GMT 40.803410 12.558309 34,025 321 425 0
2019-07-14 12:57:50 GMT 40.800430 12.561618 34,025 321 425 0
2019-07-14 12:57:42 GMT 40.786835 12.576537 34,025 321 425 0
2019-07-14 12:57:39 GMT 40.782272 12.581468 34,025 321 425 0
2019-07-14 12:57:32 GMT 40.773239 12.591370 34,025 321 425 0
2019-07-14 12:57:29 GMT 40.767197 12.597961 34,025 321 425 0
2019-07-14 12:57:22 GMT 40.756622 12.609558 34,025 321 424 0
2019-07-14 12:57:19 GMT 40.752064 12.614489 34,025 321 424 0
2019-07-14 12:57:09 GMT 40.736980 12.631031 34,025 321 425 0
2019-07-14 12:57:04 GMT 40.729431 12.639282 34,025 321 424 0
2019-07-14 12:56:59 GMT 40.720367 12.649170 34,000 321 424 0
2019-07-14 12:56:55 GMT 40.715843 12.654128 34,000 321 424 0
2019-07-14 12:56:48 GMT 40.705261 12.665710 34,000 321 425 0
2019-07-14 12:56:41 GMT 40.694687 12.677246 34,000 321 424 0
2019-07-14 12:56:37 GMT 40.688610 12.683841 34,000 321 424 0
2019-07-14 12:56:34 GMT 40.682606 12.690395 34,000 321 424 0
2019-07-14 12:56:31 GMT 40.679581 12.693726 34,000 321 424 0
2019-07-14 12:56:27 GMT 40.673538 12.700317 34,000 321 424 0
2019-07-14 12:56:19 GMT 40.662964 12.711853 34,000 321 424 0
2019-07-14 12:56:16 GMT 40.655418 12.720108 34,000 321 424 0
2019-07-14 12:56:12 GMT 40.650906 12.725039 34,000 321 424 0
2019-07-14 12:56:09 GMT 40.646347 12.729980 34,000 321 424 0
2019-07-14 12:56:06 GMT 40.641827 12.734902 34,000 321 424 0
2019-07-14 12:56:03 GMT 40.635773 12.741519 34,000 321 424 0
2019-07-14 12:55:59 GMT 40.631241 12.746460 34,000 321 424 0
2019-07-14 12:55:54 GMT 40.623688 12.754639 34,000 321 424 0
2019-07-14 12:55:50 GMT 40.619156 12.759583 34,000 321 424 0
2019-07-14 12:55:45 GMT 40.610092 12.769470 34,000 321 424 0
2019-07-14 12:55:41 GMT 40.604073 12.776038 34,000 321 424 0
2019-07-14 12:55:38 GMT 40.599518 12.780945 34,000 321 424 0
2019-07-14 12:55:34 GMT 40.593475 12.787537 34,000 321 424 0
2019-07-14 12:55:30 GMT 40.587406 12.794078 34,000 321 424 0
2019-07-14 12:55:25 GMT 40.579865 12.802318 34,000 321 424 0
2019-07-14 12:55:18 GMT 40.569298 12.813804 34,000 321 424 0
2019-07-14 12:55:14 GMT 40.561710 12.821981 34,000 321 424 0
2019-07-14 12:55:07 GMT 40.551132 12.833435 34,000 321 424 0
2019-07-14 12:55:03 GMT 40.546600 12.838318 34,000 321 424 0
2019-07-14 12:54:58 GMT 40.539047 12.846497 34,025 321 424 0
2019-07-14 12:54:55 GMT 40.533005 12.853088 34,000 321 424 0
2019-07-14 12:54:52 GMT 40.531498 12.854691 34,000 321 424 0
2019-07-14 12:54:49 GMT 40.525444 12.861245 34,000 321 424 0
2019-07-14 12:54:42 GMT 40.514877 12.872731 34,000 321 424 0
2019-07-14 12:54:38 GMT 40.510315 12.877600 34,000 321 424 0
2019-07-14 12:54:32 GMT 40.499748 12.889085 34,000 321 424 0
2019-07-14 12:54:27 GMT 40.492172 12.897278 34,000 321 424 -64
2019-07-14 12:54:21 GMT 40.483082 12.907063 34,025 321 424 0
2019-07-14 12:54:18 GMT 40.478565 12.911994 34,025 321 424 0
2019-07-14 12:54:11 GMT 40.467957 12.923401 34,025 321 424 0
2019-07-14 12:54:08 GMT 40.463425 12.928345 34,025 321 424 0
2019-07-14 12:54:00 GMT 40.451336 12.941395 34,025 321 424 0
2019-07-14 12:53:57 GMT 40.446819 12.946264 34,025 321 424 0
2019-07-14 12:53:50 GMT 40.434723 12.959351 34,025 321 424 0
2019-07-14 12:53:47 GMT 40.431690 12.962619 34,025 321 424 0
2019-07-14 12:53:39 GMT 40.419586 12.975665 34,025 321 424 0
2019-07-14 12:53:36 GMT 40.413574 12.982178 34,025 321 424 0
2019-07-14 12:53:26 GMT 40.398422 12.998535 34,025 321 424 0
2019-07-14 12:53:16 GMT 40.383316 13.014832 34,025 321 423 0
2019-07-14 12:53:11 GMT 40.377274 13.021301 34,025 321 423 0
2019-07-14 12:53:05 GMT 40.366699 13.032715 34,025 321 423 0
2019-07-14 12:52:56 GMT 40.354568 13.045776 34,000 321 424 0
2019-07-14 12:52:53 GMT 40.350037 13.050659 34,000 321 424 0
2019-07-14 12:52:50 GMT 40.345459 13.055542 34,025 321 424 0
2019-07-14 12:52:44 GMT 40.336395 13.065308 34,025 321 424 0
2019-07-14 12:52:40 GMT 40.330307 13.071777 34,000 321 424 0
2019-07-14 12:52:34 GMT 40.321220 13.081533 34,000 321 424 0
2019-07-14 12:52:29 GMT 40.313679 13.089711 34,000 321 423 0
2019-07-14 12:52:24 GMT 40.306091 13.097839 34,000 321 423 0
2019-07-14 12:52:16 GMT 40.293987 13.110809 34,000 321 423 0
2019-07-14 12:52:12 GMT 40.287964 13.117310 34,000 321 423 0
2019-07-14 12:52:07 GMT 40.277370 13.128725 34,000 321 423 0
2019-07-14 12:52:01 GMT 40.271301 13.135193 34,000 321 423 0
2019-07-14 12:51:58 GMT 40.266800 13.140085 34,000 321 422 0
2019-07-14 12:51:53 GMT 40.259216 13.148193 34,000 321 423 0
2019-07-14 12:51:45 GMT 40.247131 13.161133 34,000 321 422 0
2019-07-14 12:51:42 GMT 40.242554 13.166016 34,000 321 422 0
2019-07-14 12:51:35 GMT 40.231979 13.177352 34,000 321 422 0
2019-07-14 12:51:30 GMT 40.225929 13.183843 34,000 321 422 0
2019-07-14 12:51:24 GMT 40.215363 13.195129 34,000 321 422 0
2019-07-14 12:51:20 GMT 40.209320 13.201599 34,000 321 422 0
2019-07-14 12:51:14 GMT 40.200256 13.211304 34,000 321 422 0
2019-07-14 12:51:10 GMT 40.194225 13.217801 34,000 321 422 0
2019-07-14 12:51:04 GMT 40.185101 13.227477 34,000 321 422 0
2019-07-14 12:50:59 GMT 40.177563 13.235529 34,000 321 422 0
2019-07-14 12:50:54 GMT 40.169998 13.243591 34,000 321 422 0
2019-07-14 12:50:51 GMT 40.163921 13.250074 34,000 321 422 0
2019-07-14 12:50:46 GMT 40.157867 13.256531 34,000 321 422 0
2019-07-14 12:50:43 GMT 40.153336 13.261353 34,000 321 422 0
2019-07-14 12:50:39 GMT 40.147293 13.267822 34,000 321 422 0
2019-07-14 12:50:36 GMT 40.142738 13.272670 34,000 321 422 0
2019-07-14 12:50:33 GMT 40.138226 13.277477 34,000 321 422 0
2019-07-14 12:50:30 GMT 40.133652 13.282288 34,000 321 422 0
2019-07-14 12:50:27 GMT 40.129120 13.287170 34,000 321 422 0
2019-07-14 12:50:23 GMT 40.124588 13.291992 34,000 321 422 0
2019-07-14 12:50:20 GMT 40.116989 13.300049 33,975 321 422 0
2019-07-14 12:50:15 GMT 40.112480 13.304880 33,975 321 422 0
2019-07-14 12:50:12 GMT 40.107925 13.309692 33,975 321 422 0
2019-07-14 12:50:09 GMT 40.101883 13.316162 33,975 321 422 0
2019-07-14 12:50:05 GMT 40.097351 13.321048 33,975 321 422 0
2019-07-14 12:50:02 GMT 40.091297 13.327477 33,975 321 422 0
2019-07-14 12:49:59 GMT 40.085293 13.333969 33,975 321 422 0
2019-07-14 12:49:55 GMT 40.080730 13.338838 33,975 321 422 0
2019-07-14 12:49:47 GMT 40.067184 13.353394 33,975 321 422 0
2019-07-14 12:49:43 GMT 40.064159 13.356566 33,975 321 422 0
2019-07-14 12:49:38 GMT 40.055080 13.366304 33,975 321 422 0
2019-07-14 12:49:32 GMT 40.046005 13.375917 33,975 321 422 0
2019-07-14 12:49:27 GMT 40.038464 13.384032 33,975 321 422 0
2019-07-14 12:49:22 GMT 40.032410 13.390461 33,975 321 422 0
2019-07-14 12:49:17 GMT 40.023331 13.400085 34,000 321 422 0
2019-07-14 12:49:12 GMT 40.015743 13.408127 34,000 321 422 0
2019-07-14 12:49:09 GMT 40.011200 13.412964 34,000 321 422 0
2019-07-14 12:49:06 GMT 40.005112 13.419373 34,000 321 422 0
2019-07-14 12:49:01 GMT 39.999069 13.425781 34,000 321 422 0
2019-07-14 12:48:56 GMT 39.991489 13.433845 34,000 321 422 0
2019-07-14 12:48:50 GMT 39.974854 13.451538 34,000 321 422 0
2019-07-14 12:48:45 GMT 39.974854 13.451538 34,000 321 422 0
2019-07-14 12:48:37 GMT 39.961231 13.465992 34,000 321 422 0
2019-07-14 12:48:30 GMT 39.952148 13.475647 34,000 321 422 0
2019-07-14 12:48:25 GMT 39.944550 13.483643 34,000 321 422 0
2019-07-14 12:48:20 GMT 39.936951 13.491699 34,000 321 423 0
2019-07-14 12:48:17 GMT 39.933952 13.494894 34,000 321 423 0
2019-07-14 12:48:13 GMT 39.926376 13.502930 34,000 321 423 0
2019-07-14 12:48:07 GMT 39.917267 13.512587 34,000 321 423 0
2019-07-14 12:48:03 GMT 39.911190 13.518982 34,025 321 424 0
2019-07-14 12:47:55 GMT 39.899040 13.531860 34,025 321 424 0
2019-07-14 12:47:51 GMT 39.892914 13.538321 34,025 321 424 0
2019-07-14 12:47:48 GMT 39.888382 13.543157 34,025 321 424 0
2019-07-14 12:47:45 GMT 39.883804 13.547934 34,025 321 424 0
2019-07-14 12:47:40 GMT 39.876183 13.556030 34,025 321 424 0
2019-07-14 12:47:37 GMT 39.871628 13.560831 34,025 321 424 0
2019-07-14 12:47:34 GMT 39.867050 13.565667 34,025 321 425 0
2019-07-14 12:47:30 GMT 39.860958 13.572083 34,025 321 425 0
2019-07-14 12:47:27 GMT 39.856384 13.576892 34,025 321 425 0
2019-07-14 12:47:24 GMT 39.851807 13.581729 34,025 321 425 0
2019-07-14 12:47:21 GMT 39.847229 13.586565 34,025 321 425 0
2019-07-14 12:47:17 GMT 39.841129 13.593018 34,025 321 425 0
2019-07-14 12:47:12 GMT 39.833542 13.601074 34,025 321 425 0
2019-07-14 12:47:06 GMT 39.824387 13.610687 34,025 321 425 0
2019-07-14 12:47:03 GMT 39.819809 13.615524 34,025 321 425 0
2019-07-14 12:47:00 GMT 39.813663 13.622009 34,025 321 425 0
2019-07-14 12:46:56 GMT 39.809097 13.626808 34,025 321 425 0
2019-07-14 12:46:51 GMT 39.803001 13.633240 34,025 321 425 0
2019-07-14 12:46:48 GMT 39.796875 13.639705 34,025 321 425 0
2019-07-14 12:46:45 GMT 39.792294 13.644531 34,025 321 425 0
2019-07-14 12:46:41 GMT 39.787731 13.649353 34,025 321 426 0
2019-07-14 12:46:38 GMT 39.783142 13.654215 34,025 321 426 0
2019-07-14 12:46:35 GMT 39.770882 13.667053 34,025 322 425 0
2019-07-14 12:46:31 GMT 39.770882 13.667053 34,025 321 426 0
2019-07-14 12:46:28 GMT 39.766273 13.671875 34,025 321 426 0
2019-07-14 12:46:24 GMT 39.760162 13.678337 34,025 322 425 0
2019-07-14 12:46:20 GMT 39.754028 13.684785 34,025 321 426 0
2019-07-14 12:46:17 GMT 39.747940 13.691234 34,025 321 426 0
2019-07-14 12:46:10 GMT 39.740250 13.699280 34,025 321 426 0
2019-07-14 12:46:07 GMT 39.734150 13.705688 34,025 321 426 0
2019-07-14 12:46:00 GMT 39.721909 13.718567 34,050 321 426 0
2019-07-14 12:45:56 GMT 39.717300 13.723450 34,050 321 426 0
2019-07-14 12:45:53 GMT 39.712692 13.728253 34,050 321 426 0
2019-07-14 12:45:46 GMT 39.701981 13.739538 34,050 321 426 -64
2019-07-14 12:45:42 GMT 39.695839 13.745972 34,050 321 426 0
2019-07-14 12:45:36 GMT 39.686646 13.755599 34,050 321 427 0
2019-07-14 12:45:31 GMT 39.678986 13.763672 34,050 321 427 0
2019-07-14 12:45:26 GMT 39.671310 13.771721 34,050 322 425 0
2019-07-14 12:45:21 GMT 39.663670 13.779724 34,050 322 425 0
2019-07-14 12:45:17 GMT 39.657524 13.786133 34,050 322 425 0
2019-07-14 12:45:14 GMT 39.651398 13.792559 34,050 322 425 0
2019-07-14 12:45:10 GMT 39.646820 13.797395 34,050 322 425 0
2019-07-14 12:45:06 GMT 39.640675 13.803833 34,050 322 425 0
2019-07-14 12:45:01 GMT 39.633038 13.811829 34,050 322 425 0
2019-07-14 12:44:54 GMT 39.620750 13.824646 34,050 322 425 0
2019-07-14 12:44:50 GMT 39.617706 13.827787 34,050 322 425 0
2019-07-14 12:44:43 GMT 39.605434 13.840576 34,050 322 425 0
2019-07-14 12:44:38 GMT 39.597797 13.848572 34,050 322 425 0
2019-07-14 12:44:34 GMT 39.591660 13.854954 34,050 322 424 0
2019-07-14 12:44:28 GMT 39.584061 13.862955 34,050 322 424 0
2019-07-14 12:44:21 GMT 39.571838 13.875673 34,025 321 423 0
2019-07-14 12:44:11 GMT 39.556648 13.891602 34,025 322 421 0
2019-07-14 12:44:07 GMT 39.550549 13.897949 34,025 322 423 0
2019-07-14 12:44:01 GMT 39.541424 13.907471 34,025 322 421 0
2019-07-14 12:43:57 GMT 39.535374 13.913818 34,025 322 421 0
2019-07-14 12:43:51 GMT 39.526249 13.923340 34,025 322 421 0
2019-07-14 12:43:46 GMT 39.518707 13.931213 34,025 322 421 0
2019-07-14 12:43:39 GMT 39.508072 13.942247 34,025 322 420 0
2019-07-14 12:43:35 GMT 39.502041 13.948547 34,025 322 420 0
2019-07-14 12:43:29 GMT 39.494476 13.956398 34,025 322 418 0
2019-07-14 12:43:25 GMT 39.485470 13.965820 34,025 322 418 0
2019-07-14 12:43:19 GMT 39.477928 13.973694 34,025 322 417 0
2019-07-14 12:43:15 GMT 39.471909 13.979923 34,000 322 416 0
2019-07-14 12:43:11 GMT 39.465912 13.986193 34,025 322 416 0
2019-07-14 12:43:07 GMT 39.459957 13.992432 34,000 322 416 0
2019-07-14 12:43:04 GMT 39.455429 13.997119 34,000 322 415 0
2019-07-14 12:43:00 GMT 39.444969 14.007996 34,025 322 414 0
2019-07-14 12:42:54 GMT 39.440498 14.012634 34,000 322 414 0
2019-07-14 12:42:48 GMT 39.431534 14.021958 34,025 322 413 0
2019-07-14 12:42:43 GMT 39.425583 14.028108 34,025 322 413 0
2019-07-14 12:42:35 GMT 39.412193 14.041992 34,000 322 412 0
2019-07-14 12:42:32 GMT 39.409218 14.045105 34,000 322 411 0
2019-07-14 12:42:25 GMT 39.398834 14.055847 34,000 322 411 0
2019-07-14 12:42:22 GMT 39.392899 14.062022 34,000 322 411 -64
2019-07-14 12:42:15 GMT 39.384029 14.071228 34,025 322 409 0
2019-07-14 12:42:12 GMT 39.378113 14.077308 34,025 322 409 0
2019-07-14 12:42:05 GMT 39.367832 14.088013 34,025 322 408 0
2019-07-14 12:42:02 GMT 39.363419 14.092593 34,025 322 408 0
2019-07-14 12:41:55 GMT 39.353165 14.103281 34,025 322 406 0
2019-07-14 12:41:50 GMT 39.347256 14.109375 34,025 322 406 0
2019-07-14 12:41:44 GMT 39.337006 14.119999 34,025 322 406 -64
2019-07-14 12:41:38 GMT 39.328217 14.129089 34,025 322 406 0
2019-07-14 12:41:34 GMT 39.322350 14.135132 34,025 322 406 0
2019-07-14 12:41:30 GMT 39.316452 14.141196 34,025 322 406 0
2019-07-14 12:41:25 GMT 39.310574 14.147278 34,025 322 407 0
2019-07-14 12:41:22 GMT 39.304707 14.153320 34,025 322 408 0
2019-07-14 12:41:17 GMT 39.297302 14.160950 34,025 322 409 -64
2019-07-14 12:41:13 GMT 39.291412 14.167049 34,050 322 409 -128
2019-07-14 12:41:09 GMT 39.285507 14.173199 34,050 322 409 64
2019-07-14 12:41:01 GMT 39.269234 14.190002 34,050 322 410 0
2019-07-14 12:40:58 GMT 39.269234 14.190002 34,050 322 409 0
2019-07-14 12:40:47 GMT 39.254517 14.205263 34,050 322 409 0
2019-07-14 12:40:41 GMT 39.242569 14.217264 34,050 323 408 64
2019-07-14 12:40:37 GMT 39.238037 14.221623 34,050 324 409 64
2019-07-14 12:40:29 GMT 39.227234 14.231475 34,025 326 408 64
2019-07-14 12:40:26 GMT 39.221008 14.236908 34,025 326 408 64
2019-07-14 12:40:19 GMT 39.209976 14.246222 34,025 327 407 64
2019-07-14 12:40:16 GMT 39.205261 14.250223 34,025 327 406 0
2019-07-14 12:40:09 GMT 39.194229 14.259478 34,025 327 405 0
2019-07-14 12:40:05 GMT 39.188004 14.264732 34,025 327 404 0
2019-07-14 12:39:55 GMT 39.172394 14.277928 34,025 327 402 0
2019-07-14 12:39:44 GMT 39.156921 14.290944 34,000 327 399 0
2019-07-14 12:39:37 GMT 39.144562 14.301333 34,000 327 387 -64
2019-07-14 12:39:32 GMT 39.136887 14.307800 34,025 327 398 0
2019-07-14 12:39:26 GMT 39.129204 14.314270 34,000 327 387 -64
2019-07-14 12:39:16 GMT 39.113937 14.327127 34,000 327 391 0
2019-07-14 12:39:07 GMT 39.098713 14.339905 34,000 327 391 0
2019-07-14 12:38:54 GMT 39.079021 14.356384 34,000 327 390 0
2019-07-14 12:38:44 GMT 39.063938 14.368958 34,025 327 388 0
2019-07-14 12:38:39 GMT 39.056442 14.375305 34,025 327 387 -64
2019-07-14 12:38:36 GMT 39.047470 14.382835 34,025 327 384 0
2019-07-14 12:38:25 GMT 39.037029 14.391602 34,025 327 384 0
2019-07-14 12:38:15 GMT 39.020645 14.405405 34,025 327 384 0
2019-07-14 12:38:04 GMT 39.004211 14.419128 34,000 327 386 128
2019-07-14 12:37:54 GMT 38.989151 14.431736 33,975 327 389 384
2019-07-14 12:37:49 GMT 38.981598 14.438006 33,950 327 390 576
2019-07-14 12:37:43 GMT 38.974045 14.444336 33,875 327 390 1024
2019-07-14 12:37:38 GMT 38.964970 14.451904 33,775 327 390 1024
2019-07-14 12:37:33 GMT 38.957424 14.458252 33,700 327 390 1024
2019-07-14 12:37:23 GMT 38.942230 14.470905 33,500 327 391 1024
2019-07-14 12:37:16 GMT 38.931610 14.479742 33,400 327 392 1088
2019-07-14 12:37:11 GMT 38.924004 14.486084 33,300 327 392 1152
2019-07-14 12:37:08 GMT 38.919434 14.489892 33,250 327 392 1216
2019-07-14 12:37:02 GMT 38.910278 14.497535 33,100 328 393 1344
2019-07-14 12:36:57 GMT 38.904171 14.502625 33,000 327 393 1344
2019-07-14 12:36:49 GMT 38.890411 14.514074 32,825 327 395 1408
2019-07-14 12:35:31 GMT 38.769821 14.614502 31,425 327 396 704
2019-07-14 12:35:19 GMT 38.751434 14.629729 31,225 328 395 1280
2019-07-14 12:34:30 GMT 38.677322 14.691162 30,200 328 397 1280
2019-07-14 12:34:22 GMT 38.663361 14.702633 30,000 328 399 1600
2019-07-14 12:34:12 GMT 38.647842 14.715470 29,725 328 401 1472
2019-07-14 12:34:01 GMT 38.630676 14.729621 29,525 328 401 832
2019-07-14 12:33:49 GMT 38.612007 14.744995 29,350 328 399 768
2019-07-14 12:33:40 GMT 38.599594 14.755176 29,250 328 397 832
2019-07-14 12:33:21 GMT 38.570343 14.779298 28,950 328 394 1088
2019-07-14 12:33:18 GMT 38.565735 14.783081 28,900 328 394 1088
2019-07-14 12:33:09 GMT 38.550419 14.795654 28,700 328 394 1280
2019-07-14 12:32:59 GMT 38.535107 14.808289 28,525 328 394 1024
2019-07-14 12:32:48 GMT 38.518341 14.822109 28,350 328 391 832
2019-07-14 12:32:38 GMT 38.503170 14.834595 28,200 328 389 960
2019-07-14 12:32:27 GMT 38.488037 14.847007 28,025 328 387 960
2019-07-14 12:32:17 GMT 38.471516 14.860596 27,850 328 386 960
2019-07-14 12:32:06 GMT 38.454987 14.874084 27,650 328 385 1344
2019-07-14 12:28:02 GMT 38.099899 15.163237 22,125 328 358 640
2019-07-14 12:26:41 GMT 37.995937 15.247411 21,050 328 308 1344
2019-07-14 12:26:27 GMT 37.979233 15.260945 20,725 328 305 2560
2019-07-14 12:26:22 GMT 37.972046 15.266730 20,325 328 309 3392
2019-07-14 12:26:10 GMT 37.958725 15.277541 19,675 328 314 3904
2019-07-14 12:25:25 GMT 37.900177 15.324759 17,625 328 328 2240
2019-07-14 12:25:18 GMT 37.891193 15.331958 17,350 328 329 2752
2019-07-14 12:25:05 GMT 37.874451 15.345388 16,825 328 329 2240
2019-07-14 12:24:57 GMT 37.864147 15.353632 16,525 328 329 2304
2019-07-14 12:24:12 GMT 37.806656 15.399735 14,975 328 323 1792
2019-07-14 12:24:05 GMT 37.797855 15.406832 14,775 328 320 1536
2019-07-14 12:23:45 GMT 37.773010 15.426616 14,425 328 316 2304
2019-07-14 12:23:14 GMT 37.731720 15.449816 12,900 0 330 2304
2019-07-14 12:23:04 GMT 37.718021 15.449882 12,525 0 330 2304
2019-07-14 12:23:00 GMT 37.711876 15.448807 12,375 19 341 1984
2019-07-14 12:22:52 GMT 37.698303 15.444148 12,075 19 341 1984
2019-07-14 12:22:41 GMT 37.682785 15.433746 11,725 31 348 2240
2019-07-14 12:22:30 GMT 37.667789 15.421939 11,375 31 344 1472
2019-07-14 12:22:20 GMT 37.654449 15.411539 11,200 31 336 896
2019-07-14 12:22:09 GMT 37.641449 15.401430 11,025 31 325 1024
2019-07-14 12:21:58 GMT 37.627476 15.390771 10,825 31 313 1088

Making use of Plane Finder data

You are free to use the raw flight data, aircraft information and images provided in this report for your own purposes provided the data is correctly attributed to Plane Finder. We ask that you please credit Plane Finder and link to planefinder.net in close proximity to the content.

Optionally one of the following logos (no smaller then 150x24px) can be used and must link to planefinder.net

Embedding the Plane Finder map

You are welcome to embed the Plane Finder playback map on your website to offer visitors a more interactive experience. We suggest using the following HTML code:

<iframe src="//planefinder.net/data/report/BA2593-G-MIDS-7700-squawk-2019-07-14/map" width="800" height="600" seamless="seamless"></iframe>

Where our data comes from

Plane Finder has a global network of data feeds and antenna radars that receive data broadcast directly from aircraft. The primary technologies used are ADS-B and MLAT. We also show feeds from the FAA and a FLARM glider feed.

Click here to find out more about the Plane Finder network.

How we collect our data